<?xml version="1.0" encoding="UTF-8" standalone="no" ?>
<gpx xmlns="http://www.topografix.com/GPX/1/1" xmlns:xsi="http://www.w3.org/2001/XMLSchema-instance" xsi:schemaLocation="http://www.topografix.com/GPX/1/1 http://www.topografix.com/GPX/1/1/gpx.xsd" version="1.1" creator="VisuGPX - https://www.visugpx.com">
  <metadata>
    <name>2024 05 22 Parcours Total 2024</name>
  </metadata>
  <trk>
    <name><![CDATA[Trail 8 Bonus]]></name>
    <extensions>
      <line xmlns="http://www.topografix.com/GPX/gpx_style/0/2">
        <color>ff0000</color>
        <width>4</width>
          <extensions>
            <sens>1</sens>
          </extensions>
      </line>
    </extensions>
    <trkseg>
      <trkpt lat="48.15003" lon="3.32527">
        <ele>107.5</ele>
        <time>2024-05-15T11:18:21.000Z</time>
      </trkpt>
      <trkpt lat="48.15005" lon="3.32531">
        <ele>108.1</ele>
        <time>2024-05-15T11:18:20.000Z</time>
      </trkpt>
      <trkpt lat="48.15007" lon="3.32534">
        <ele>108.7</ele>
        <time>2024-05-15T11:18:19.000Z</time>
      </trkpt>
      <trkpt lat="48.1501" lon="3.32535">
        <ele>109.3</ele>
        <time>2024-05-15T11:18:18.000Z</time>
      </trkpt>
      <trkpt lat="48.15013" lon="3.32536">
        <ele>109.9</ele>
        <time>2024-05-15T11:18:17.000Z</time>
      </trkpt>
      <trkpt lat="48.15016" lon="3.32536">
        <ele>110.5</ele>
        <time>2024-05-15T11:18:16.000Z</time>
      </trkpt>
      <trkpt lat="48.15019" lon="3.32535">
        <ele>110.9</ele>
        <time>2024-05-15T11:18:15.000Z</time>
      </trkpt>
      <trkpt lat="48.15023" lon="3.3253">
        <ele>111.3</ele>
        <time>2024-05-15T11:18:13.000Z</time>
      </trkpt>
      <trkpt lat="48.15025" lon="3.32529">
        <ele>111.6</ele>
        <time>2024-05-15T11:18:12.000Z</time>
      </trkpt>
      <trkpt lat="48.15027" lon="3.32529">
        <ele>111.9</ele>
        <time>2024-05-15T11:18:11.000Z</time>
      </trkpt>
      <trkpt lat="48.15029" lon="3.3253">
        <ele>112.5</ele>
        <time>2024-05-15T11:18:10.000Z</time>
      </trkpt>
      <trkpt lat="48.1503" lon="3.32533">
        <ele>113.1</ele>
        <time>2024-05-15T11:18:09.000Z</time>
      </trkpt>
      <trkpt lat="48.15033" lon="3.32538">
        <ele>114.3</ele>
        <time>2024-05-15T11:18:07.000Z</time>
      </trkpt>
      <trkpt lat="48.15035" lon="3.32541">
        <ele>115</ele>
        <time>2024-05-15T11:18:06.000Z</time>
      </trkpt>
      <trkpt lat="48.15037" lon="3.32544">
        <ele>115.8</ele>
        <time>2024-05-15T11:18:05.000Z</time>
      </trkpt>
      <trkpt lat="48.15038" lon="3.32547">
        <ele>116.2</ele>
        <time>2024-05-15T11:18:04.000Z</time>
      </trkpt>
      <trkpt lat="48.1504" lon="3.32553">
        <ele>117</ele>
        <time>2024-05-15T11:18:02.000Z</time>
      </trkpt>
      <trkpt lat="48.15042" lon="3.32554">
        <ele>117.5</ele>
        <time>2024-05-15T11:18:01.000Z</time>
      </trkpt>
      <trkpt lat="48.15044" lon="3.32555">
        <ele>118.1</ele>
        <time>2024-05-15T11:18:00.000Z</time>
      </trkpt>
      <trkpt lat="48.15046" lon="3.32554">
        <ele>118.6</ele>
        <time>2024-05-15T11:17:59.000Z</time>
      </trkpt>
      <trkpt lat="48.15048" lon="3.32553">
        <ele>119</ele>
        <time>2024-05-15T11:17:58.000Z</time>
      </trkpt>
      <trkpt lat="48.15049" lon="3.32552">
        <ele>119.3</ele>
        <time>2024-05-15T11:17:57.000Z</time>
      </trkpt>
      <trkpt lat="48.1505" lon="3.32549">
        <ele>119.5</ele>
        <time>2024-05-15T11:17:56.000Z</time>
      </trkpt>
      <trkpt lat="48.15052" lon="3.32545">
        <ele>120</ele>
        <time>2024-05-15T11:17:55.000Z</time>
      </trkpt>
      <trkpt lat="48.15055" lon="3.32541">
        <ele>120.8</ele>
        <time>2024-05-15T11:17:54.000Z</time>
      </trkpt>
      <trkpt lat="48.15057" lon="3.32539">
        <ele>121.5</ele>
        <time>2024-05-15T11:17:53.000Z</time>
      </trkpt>
      <trkpt lat="48.1506" lon="3.32538">
        <ele>122.4</ele>
        <time>2024-05-15T11:17:52.000Z</time>
      </trkpt>
      <trkpt lat="48.15064" lon="3.32537">
        <ele>123.6</ele>
        <time>2024-05-15T11:17:51.000Z</time>
      </trkpt>
      <trkpt lat="48.15067" lon="3.32538">
        <ele>124.6</ele>
        <time>2024-05-15T11:17:50.000Z</time>
      </trkpt>
      <trkpt lat="48.15069" lon="3.32535">
        <ele>125.1</ele>
        <time>2024-05-15T11:17:49.000Z</time>
      </trkpt>
      <trkpt lat="48.15072" lon="3.32533">
        <ele>126</ele>
        <time>2024-05-15T11:17:48.000Z</time>
      </trkpt>
      <trkpt lat="48.15075" lon="3.32532">
        <ele>126.8</ele>
        <time>2024-05-15T11:17:47.000Z</time>
      </trkpt>
      <trkpt lat="48.15078" lon="3.32529">
        <ele>127.5</ele>
        <time>2024-05-15T11:17:46.000Z</time>
      </trkpt>
      <trkpt lat="48.15083" lon="3.32519">
        <ele>128.6</ele>
        <time>2024-05-15T11:17:44.000Z</time>
      </trkpt>
      <trkpt lat="48.15086" lon="3.32514">
        <ele>129.3</ele>
        <time>2024-05-15T11:17:43.000Z</time>
      </trkpt>
      <trkpt lat="48.15089" lon="3.32511">
        <ele>130.1</ele>
        <time>2024-05-15T11:17:42.000Z</time>
      </trkpt>
      <trkpt lat="48.15091" lon="3.32508">
        <ele>130.6</ele>
        <time>2024-05-15T11:17:41.000Z</time>
      </trkpt>
      <trkpt lat="48.15093" lon="3.32501">
        <ele>130.8</ele>
        <time>2024-05-15T11:17:39.000Z</time>
      </trkpt>
      <trkpt lat="48.15094" lon="3.32498">
        <ele>130.9</ele>
        <time>2024-05-15T11:17:38.000Z</time>
      </trkpt>
      <trkpt lat="48.15097" lon="3.32482">
        <ele>130.6</ele>
        <time>2024-05-15T11:17:34.000Z</time>
      </trkpt>
      <trkpt lat="48.15097" lon="3.3248">
        <ele>130.5</ele>
        <time>2024-05-15T11:17:33.000Z</time>
      </trkpt>
      <trkpt lat="48.15097" lon="3.32476">
        <ele>130.2</ele>
        <time>2024-05-15T11:17:32.000Z</time>
      </trkpt>
      <trkpt lat="48.15098" lon="3.32474">
        <ele>130.4</ele>
        <time>2024-05-15T11:17:31.000Z</time>
      </trkpt>
      <trkpt lat="48.15099" lon="3.32471">
        <ele>130.4</ele>
        <time>2024-05-15T11:17:29.000Z</time>
      </trkpt>
      <trkpt lat="48.15099" lon="3.32469">
        <ele>130.2</ele>
        <time>2024-05-15T11:17:28.000Z</time>
      </trkpt>
      <trkpt lat="48.151" lon="3.32468">
        <ele>130.3</ele>
        <time>2024-05-15T11:17:27.000Z</time>
      </trkpt>
      <trkpt lat="48.151" lon="3.32466">
        <ele>130.1</ele>
        <time>2024-05-15T11:17:26.000Z</time>
      </trkpt>
      <trkpt lat="48.151" lon="3.32463">
        <ele>129.8</ele>
        <time>2024-05-15T11:17:25.000Z</time>
      </trkpt>
      <trkpt lat="48.15101" lon="3.32461">
        <ele>129.9</ele>
        <time>2024-05-15T11:17:24.000Z</time>
      </trkpt>
      <trkpt lat="48.15102" lon="3.32459">
        <ele>129.9</ele>
        <time>2024-05-15T11:17:23.000Z</time>
      </trkpt>
      <trkpt lat="48.15104" lon="3.32457">
        <ele>130.3</ele>
        <time>2024-05-15T11:17:22.000Z</time>
      </trkpt>
      <trkpt lat="48.15105" lon="3.32455">
        <ele>130.4</ele>
        <time>2024-05-15T11:17:21.000Z</time>
      </trkpt>
      <trkpt lat="48.15107" lon="3.32453">
        <ele>130.7</ele>
        <time>2024-05-15T11:17:15.000Z</time>
      </trkpt>
      <trkpt lat="48.15107" lon="3.32453">
        <ele>130.7</ele>
        <time>2024-05-15T11:17:14.000Z</time>
      </trkpt>
      <trkpt lat="48.15109" lon="3.32453">
        <ele>131.3</ele>
        <time>2024-05-15T11:17:04.000Z</time>
      </trkpt>
      <trkpt lat="48.15109" lon="3.32452">
        <ele>131.2</ele>
        <time>2024-05-15T11:17:03.000Z</time>
      </trkpt>
      <trkpt lat="48.15109" lon="3.32451">
        <ele>131.1</ele>
        <time>2024-05-15T11:17:00.000Z</time>
      </trkpt>
      <trkpt lat="48.15109" lon="3.32451">
        <ele>131.1</ele>
        <time>2024-05-15T11:16:59.000Z</time>
      </trkpt>
      <trkpt lat="48.15109" lon="3.32451">
        <ele>131.1</ele>
        <time>2024-05-15T11:16:57.000Z</time>
      </trkpt>
      <trkpt lat="48.15109" lon="3.3245">
        <ele>131</ele>
        <time>2024-05-15T11:16:56.000Z</time>
      </trkpt>
      <trkpt lat="48.15111" lon="3.32448">
        <ele>131.4</ele>
        <time>2024-05-15T11:16:55.000Z</time>
      </trkpt>
      <trkpt lat="48.15116" lon="3.32442">
        <ele>131.9</ele>
        <time>2024-05-15T11:16:53.000Z</time>
      </trkpt>
      <trkpt lat="48.15118" lon="3.32438">
        <ele>131.8</ele>
        <time>2024-05-15T11:16:52.000Z</time>
      </trkpt>
      <trkpt lat="48.15124" lon="3.32433">
        <ele>132.6</ele>
        <time>2024-05-15T11:16:50.000Z</time>
      </trkpt>
      <trkpt lat="48.15126" lon="3.32431">
        <ele>132.8</ele>
        <time>2024-05-15T11:16:49.000Z</time>
      </trkpt>
      <trkpt lat="48.15128" lon="3.3243">
        <ele>133.2</ele>
        <time>2024-05-15T11:16:48.000Z</time>
      </trkpt>
      <trkpt lat="48.15129" lon="3.32429">
        <ele>133.3</ele>
        <time>2024-05-15T11:16:47.000Z</time>
      </trkpt>
      <trkpt lat="48.1513" lon="3.32427">
        <ele>133.2</ele>
        <time>2024-05-15T11:16:46.000Z</time>
      </trkpt>
      <trkpt lat="48.15131" lon="3.32425">
        <ele>133.2</ele>
        <time>2024-05-15T11:16:45.000Z</time>
      </trkpt>
      <trkpt lat="48.15135" lon="3.32428">
        <ele>134.7</ele>
        <time>2024-05-15T11:16:43.000Z</time>
      </trkpt>
      <trkpt lat="48.15136" lon="3.32429">
        <ele>135</ele>
        <time>2024-05-15T11:16:42.000Z</time>
      </trkpt>
      <trkpt lat="48.15136" lon="3.32431">
        <ele>135.3</ele>
        <time>2024-05-15T11:16:41.000Z</time>
      </trkpt>
      <trkpt lat="48.15133" lon="3.32439">
        <ele>135.7</ele>
        <time>2024-05-15T11:16:38.000Z</time>
      </trkpt>
      <trkpt lat="48.15133" lon="3.32442">
        <ele>136.2</ele>
        <time>2024-05-15T11:16:37.000Z</time>
      </trkpt>
      <trkpt lat="48.15133" lon="3.32444">
        <ele>136.5</ele>
        <time>2024-05-15T11:16:36.000Z</time>
      </trkpt>
      <trkpt lat="48.15134" lon="3.32445">
        <ele>136.8</ele>
        <time>2024-05-15T11:16:35.000Z</time>
      </trkpt>
      <trkpt lat="48.15136" lon="3.32446">
        <ele>137.4</ele>
        <time>2024-05-15T11:16:34.000Z</time>
      </trkpt>
      <trkpt lat="48.15139" lon="3.32446">
        <ele>138.2</ele>
        <time>2024-05-15T11:16:32.000Z</time>
      </trkpt>
      <trkpt lat="48.15141" lon="3.32446">
        <ele>138.7</ele>
        <time>2024-05-15T11:16:31.000Z</time>
      </trkpt>
      <trkpt lat="48.15142" lon="3.32445">
        <ele>138.8</ele>
        <time>2024-05-15T11:16:29.000Z</time>
      </trkpt>
      <trkpt lat="48.15142" lon="3.32445">
        <ele>138.8</ele>
        <time>2024-05-15T11:16:28.000Z</time>
      </trkpt>
      <trkpt lat="48.15142" lon="3.32445">
        <ele>138.8</ele>
        <time>2024-05-15T11:16:27.000Z</time>
      </trkpt>
      <trkpt lat="48.15142" lon="3.32444">
        <ele>138.7</ele>
        <time>2024-05-15T11:16:26.000Z</time>
      </trkpt>
      <trkpt lat="48.15143" lon="3.32442">
        <ele>138.7</ele>
        <time>2024-05-15T11:16:25.000Z</time>
      </trkpt>
      <trkpt lat="48.15146" lon="3.32438">
        <ele>138.9</ele>
        <time>2024-05-15T11:16:24.000Z</time>
      </trkpt>
      <trkpt lat="48.15154" lon="3.32435">
        <ele>140.6</ele>
        <time>2024-05-15T11:16:22.000Z</time>
      </trkpt>
      <trkpt lat="48.1517" lon="3.32427">
        <ele>143.8</ele>
        <time>2024-05-15T11:16:16.000Z</time>
      </trkpt>
      <trkpt lat="48.15174" lon="3.32425">
        <ele>144.4</ele>
        <time>2024-05-15T11:16:14.000Z</time>
      </trkpt>
      <trkpt lat="48.15174" lon="3.32424">
        <ele>144.3</ele>
        <time>2024-05-15T11:16:11.000Z</time>
      </trkpt>
      <trkpt lat="48.15174" lon="3.32424">
        <ele>144.3</ele>
        <time>2024-05-15T11:16:09.000Z</time>
      </trkpt>
      <trkpt lat="48.15174" lon="3.32424">
        <ele>144.3</ele>
        <time>2024-05-15T11:16:07.000Z</time>
      </trkpt>
      <trkpt lat="48.15174" lon="3.32424">
        <ele>144.3</ele>
        <time>2024-05-15T11:16:05.000Z</time>
      </trkpt>
      <trkpt lat="48.15174" lon="3.32424">
        <ele>144.3</ele>
        <time>2024-05-15T11:16:04.000Z</time>
      </trkpt>
      <trkpt lat="48.15175" lon="3.32424">
        <ele>144.5</ele>
        <time>2024-05-15T11:16:03.000Z</time>
      </trkpt>
      <trkpt lat="48.15177" lon="3.32424">
        <ele>144.9</ele>
        <time>2024-05-15T11:16:02.000Z</time>
      </trkpt>
      <trkpt lat="48.15179" lon="3.32424">
        <ele>145.3</ele>
        <time>2024-05-15T11:16:01.000Z</time>
      </trkpt>
      <trkpt lat="48.15181" lon="3.32426">
        <ele>145.9</ele>
        <time>2024-05-15T11:16:00.000Z</time>
      </trkpt>
      <trkpt lat="48.15182" lon="3.32429">
        <ele>146.4</ele>
        <time>2024-05-15T11:15:59.000Z</time>
      </trkpt>
      <trkpt lat="48.15183" lon="3.32431">
        <ele>146.8</ele>
        <time>2024-05-15T11:15:58.000Z</time>
      </trkpt>
      <trkpt lat="48.15184" lon="3.32434">
        <ele>147.2</ele>
        <time>2024-05-15T11:15:57.000Z</time>
      </trkpt>
      <trkpt lat="48.15186" lon="3.32435">
        <ele>147.7</ele>
        <time>2024-05-15T11:15:56.000Z</time>
      </trkpt>
      <trkpt lat="48.15188" lon="3.32435">
        <ele>148.1</ele>
        <time>2024-05-15T11:15:55.000Z</time>
      </trkpt>
      <trkpt lat="48.1519" lon="3.32436">
        <ele>148.5</ele>
        <time>2024-05-15T11:15:54.000Z</time>
      </trkpt>
      <trkpt lat="48.15192" lon="3.32436">
        <ele>148.9</ele>
        <time>2024-05-15T11:15:53.000Z</time>
      </trkpt>
      <trkpt lat="48.15194" lon="3.32436">
        <ele>149.3</ele>
        <time>2024-05-15T11:15:52.000Z</time>
      </trkpt>
      <trkpt lat="48.15196" lon="3.32435">
        <ele>149.6</ele>
        <time>2024-05-15T11:15:51.000Z</time>
      </trkpt>
      <trkpt lat="48.152" lon="3.32433">
        <ele>150.2</ele>
        <time>2024-05-15T11:15:49.000Z</time>
      </trkpt>
      <trkpt lat="48.15202" lon="3.32433">
        <ele>150.5</ele>
        <time>2024-05-15T11:15:48.000Z</time>
      </trkpt>
      <trkpt lat="48.15204" lon="3.32433">
        <ele>150.9</ele>
        <time>2024-05-15T11:15:47.000Z</time>
      </trkpt>
      <trkpt lat="48.15206" lon="3.32433">
        <ele>151.3</ele>
        <time>2024-05-15T11:15:46.000Z</time>
      </trkpt>
      <trkpt lat="48.15208" lon="3.32432">
        <ele>151.5</ele>
        <time>2024-05-15T11:15:45.000Z</time>
      </trkpt>
      <trkpt lat="48.15209" lon="3.32432">
        <ele>151.7</ele>
        <time>2024-05-15T11:15:44.000Z</time>
      </trkpt>
      <trkpt lat="48.15212" lon="3.32433">
        <ele>152.3</ele>
        <time>2024-05-15T11:15:43.000Z</time>
      </trkpt>
      <trkpt lat="48.15214" lon="3.32436">
        <ele>152.9</ele>
        <time>2024-05-15T11:15:42.000Z</time>
      </trkpt>
      <trkpt lat="48.15218" lon="3.3244">
        <ele>153.9</ele>
        <time>2024-05-15T11:15:37.000Z</time>
      </trkpt>
      <trkpt lat="48.15218" lon="3.3244">
        <ele>153.9</ele>
        <time>2024-05-15T11:15:36.000Z</time>
      </trkpt>
      <trkpt lat="48.15218" lon="3.3244">
        <ele>153.9</ele>
        <time>2024-05-15T11:15:33.000Z</time>
      </trkpt>
      <trkpt lat="48.15218" lon="3.3244">
        <ele>153.9</ele>
        <time>2024-05-15T11:15:30.000Z</time>
      </trkpt>
      <trkpt lat="48.15218" lon="3.3244">
        <ele>153.9</ele>
        <time>2024-05-15T11:15:29.000Z</time>
      </trkpt>
      <trkpt lat="48.15219" lon="3.3244">
        <ele>154.1</ele>
        <time>2024-05-15T11:15:28.000Z</time>
      </trkpt>
      <trkpt lat="48.15219" lon="3.3244">
        <ele>154.1</ele>
        <time>2024-05-15T11:15:27.000Z</time>
      </trkpt>
      <trkpt lat="48.15219" lon="3.32441">
        <ele>154.2</ele>
        <time>2024-05-15T11:15:26.000Z</time>
      </trkpt>
      <trkpt lat="48.15221" lon="3.32441">
        <ele>154.5</ele>
        <time>2024-05-15T11:15:25.000Z</time>
      </trkpt>
      <trkpt lat="48.15222" lon="3.32443">
        <ele>154.9</ele>
        <time>2024-05-15T11:15:24.000Z</time>
      </trkpt>
      <trkpt lat="48.15223" lon="3.32444">
        <ele>155.1</ele>
        <time>2024-05-15T11:15:23.000Z</time>
      </trkpt>
      <trkpt lat="48.15225" lon="3.32447">
        <ele>155.7</ele>
        <time>2024-05-15T11:15:22.000Z</time>
      </trkpt>
      <trkpt lat="48.15226" lon="3.32449">
        <ele>156</ele>
        <time>2024-05-15T11:15:21.000Z</time>
      </trkpt>
      <trkpt lat="48.15226" lon="3.32451">
        <ele>156.1</ele>
        <time>2024-05-15T11:15:20.000Z</time>
      </trkpt>
      <trkpt lat="48.15227" lon="3.32453">
        <ele>156.4</ele>
        <time>2024-05-15T11:15:19.000Z</time>
      </trkpt>
      <trkpt lat="48.15228" lon="3.32454">
        <ele>156.7</ele>
        <time>2024-05-15T11:15:18.000Z</time>
      </trkpt>
      <trkpt lat="48.1523" lon="3.32456">
        <ele>157.1</ele>
        <time>2024-05-15T11:15:17.000Z</time>
      </trkpt>
      <trkpt lat="48.15231" lon="3.32457">
        <ele>157.3</ele>
        <time>2024-05-15T11:15:16.000Z</time>
      </trkpt>
      <trkpt lat="48.15233" lon="3.32459">
        <ele>157.8</ele>
        <time>2024-05-15T11:15:15.000Z</time>
      </trkpt>
      <trkpt lat="48.15236" lon="3.32461">
        <ele>158.4</ele>
        <time>2024-05-15T11:15:14.000Z</time>
      </trkpt>
      <trkpt lat="48.15238" lon="3.32463">
        <ele>158.8</ele>
        <time>2024-05-15T11:15:13.000Z</time>
      </trkpt>
      <trkpt lat="48.15247" lon="3.32473">
        <ele>160.7</ele>
        <time>2024-05-15T11:15:09.000Z</time>
      </trkpt>
      <trkpt lat="48.15254" lon="3.32485">
        <ele>162.9</ele>
        <time>2024-05-15T11:15:05.000Z</time>
      </trkpt>
      <trkpt lat="48.15256" lon="3.32487">
        <ele>163.3</ele>
        <time>2024-05-15T11:15:02.000Z</time>
      </trkpt>
      <trkpt lat="48.15256" lon="3.32487">
        <ele>163.3</ele>
        <time>2024-05-15T11:14:56.000Z</time>
      </trkpt>
      <trkpt lat="48.15256" lon="3.32487">
        <ele>163.3</ele>
        <time>2024-05-15T11:14:55.000Z</time>
      </trkpt>
      <trkpt lat="48.15257" lon="3.32488">
        <ele>163.6</ele>
        <time>2024-05-15T11:14:54.000Z</time>
      </trkpt>
      <trkpt lat="48.15258" lon="3.32489">
        <ele>163.8</ele>
        <time>2024-05-15T11:14:53.000Z</time>
      </trkpt>
      <trkpt lat="48.15259" lon="3.32489">
        <ele>163.9</ele>
        <time>2024-05-15T11:14:52.000Z</time>
      </trkpt>
      <trkpt lat="48.1526" lon="3.3249">
        <ele>164.1</ele>
        <time>2024-05-15T11:14:51.000Z</time>
      </trkpt>
      <trkpt lat="48.15264" lon="3.32489">
        <ele>164.5</ele>
        <time>2024-05-15T11:14:49.000Z</time>
      </trkpt>
      <trkpt lat="48.15266" lon="3.32487">
        <ele>164.6</ele>
        <time>2024-05-15T11:14:40.000Z</time>
      </trkpt>
      <trkpt lat="48.15266" lon="3.32487">
        <ele>164.6</ele>
        <time>2024-05-15T11:14:24.000Z</time>
      </trkpt>
      <trkpt lat="48.15266" lon="3.32487">
        <ele>164.6</ele>
        <time>2024-05-15T11:14:10.000Z</time>
      </trkpt>
      <trkpt lat="48.15266" lon="3.32487">
        <ele>164.6</ele>
        <time>2024-05-15T11:13:56.000Z</time>
      </trkpt>
      <trkpt lat="48.15266" lon="3.32487">
        <ele>164.6</ele>
        <time>2024-05-15T11:13:53.000Z</time>
      </trkpt>
      <trkpt lat="48.15266" lon="3.32487">
        <ele>164.6</ele>
        <time>2024-05-15T11:13:48.000Z</time>
      </trkpt>
      <trkpt lat="48.15266" lon="3.32487">
        <ele>164.6</ele>
        <time>2024-05-15T11:13:47.000Z</time>
      </trkpt>
      <trkpt lat="48.15269" lon="3.32489">
        <ele>165.1</ele>
        <time>2024-05-15T11:13:45.000Z</time>
      </trkpt>
      <trkpt lat="48.15271" lon="3.32497">
        <ele>166</ele>
        <time>2024-05-15T11:13:43.000Z</time>
      </trkpt>
      <trkpt lat="48.15271" lon="3.325">
        <ele>166.3</ele>
        <time>2024-05-15T11:13:42.000Z</time>
      </trkpt>
      <trkpt lat="48.1527" lon="3.32504">
        <ele>166.3</ele>
        <time>2024-05-15T11:13:39.000Z</time>
      </trkpt>
      <trkpt lat="48.1527" lon="3.32504">
        <ele>166.3</ele>
        <time>2024-05-15T11:13:37.000Z</time>
      </trkpt>
      <trkpt lat="48.1527" lon="3.32504">
        <ele>166.3</ele>
        <time>2024-05-15T11:13:32.000Z</time>
      </trkpt>
      <trkpt lat="48.1527" lon="3.32504">
        <ele>166.3</ele>
        <time>2024-05-15T11:13:31.000Z</time>
      </trkpt>
      <trkpt lat="48.1527" lon="3.32505">
        <ele>166.4</ele>
        <time>2024-05-15T11:13:30.000Z</time>
      </trkpt>
      <trkpt lat="48.15268" lon="3.32512">
        <ele>166.5</ele>
        <time>2024-05-15T11:13:28.000Z</time>
      </trkpt>
      <trkpt lat="48.15266" lon="3.32522">
        <ele>166.9</ele>
        <time>2024-05-15T11:13:26.000Z</time>
      </trkpt>
      <trkpt lat="48.15265" lon="3.32534">
        <ele>167.5</ele>
        <time>2024-05-15T11:13:23.000Z</time>
      </trkpt>
      <trkpt lat="48.15261" lon="3.32547">
        <ele>168.2</ele>
        <time>2024-05-15T11:13:20.000Z</time>
      </trkpt>
      <trkpt lat="48.1526" lon="3.3255">
        <ele>168.3</ele>
        <time>2024-05-15T11:13:19.000Z</time>
      </trkpt>
      <trkpt lat="48.15258" lon="3.32554">
        <ele>168.5</ele>
        <time>2024-05-15T11:13:18.000Z</time>
      </trkpt>
      <trkpt lat="48.15255" lon="3.32565">
        <ele>169</ele>
        <time>2024-05-15T11:13:16.000Z</time>
      </trkpt>
      <trkpt lat="48.15254" lon="3.32568">
        <ele>169.1</ele>
        <time>2024-05-15T11:13:15.000Z</time>
      </trkpt>
      <trkpt lat="48.15255" lon="3.32572">
        <ele>169.4</ele>
        <time>2024-05-15T11:13:14.000Z</time>
      </trkpt>
      <trkpt lat="48.15255" lon="3.32575">
        <ele>169.6</ele>
        <time>2024-05-15T11:13:13.000Z</time>
      </trkpt>
      <trkpt lat="48.15253" lon="3.32588">
        <ele>170.3</ele>
        <time>2024-05-15T11:13:10.000Z</time>
      </trkpt>
      <trkpt lat="48.15252" lon="3.32592">
        <ele>170.4</ele>
        <time>2024-05-15T11:13:09.000Z</time>
      </trkpt>
      <trkpt lat="48.15252" lon="3.32595">
        <ele>170.5</ele>
        <time>2024-05-15T11:13:08.000Z</time>
      </trkpt>
      <trkpt lat="48.15251" lon="3.32597">
        <ele>170.5</ele>
        <time>2024-05-15T11:13:07.000Z</time>
      </trkpt>
      <trkpt lat="48.1525" lon="3.32603">
        <ele>170.7</ele>
        <time>2024-05-15T11:13:05.000Z</time>
      </trkpt>
      <trkpt lat="48.15249" lon="3.3261">
        <ele>170.9</ele>
        <time>2024-05-15T11:13:03.000Z</time>
      </trkpt>
      <trkpt lat="48.1525" lon="3.32615">
        <ele>171.1</ele>
        <time>2024-05-15T11:12:56.000Z</time>
      </trkpt>
      <trkpt lat="48.1525" lon="3.32615">
        <ele>171.1</ele>
        <time>2024-05-15T11:12:55.000Z</time>
      </trkpt>
      <trkpt lat="48.15251" lon="3.32621">
        <ele>171.4</ele>
        <time>2024-05-15T11:12:51.000Z</time>
      </trkpt>
      <trkpt lat="48.15251" lon="3.32623">
        <ele>171.5</ele>
        <time>2024-05-15T11:12:50.000Z</time>
      </trkpt>
      <trkpt lat="48.15251" lon="3.32624">
        <ele>171.5</ele>
        <time>2024-05-15T11:12:49.000Z</time>
      </trkpt>
      <trkpt lat="48.15251" lon="3.32626">
        <ele>171.6</ele>
        <time>2024-05-15T11:12:48.000Z</time>
      </trkpt>
      <trkpt lat="48.15251" lon="3.32626">
        <ele>171.6</ele>
        <time>2024-05-15T11:12:47.000Z</time>
      </trkpt>
      <trkpt lat="48.1525" lon="3.3263">
        <ele>171.7</ele>
        <time>2024-05-15T11:12:46.000Z</time>
      </trkpt>
      <trkpt lat="48.1525" lon="3.32634">
        <ele>171.8</ele>
        <time>2024-05-15T11:12:45.000Z</time>
      </trkpt>
      <trkpt lat="48.15249" lon="3.32639">
        <ele>171.9</ele>
        <time>2024-05-15T11:12:43.000Z</time>
      </trkpt>
      <trkpt lat="48.15249" lon="3.32641">
        <ele>172</ele>
        <time>2024-05-15T11:12:42.000Z</time>
      </trkpt>
      <trkpt lat="48.15247" lon="3.32644">
        <ele>171.8</ele>
        <time>2024-05-15T11:12:40.000Z</time>
      </trkpt>
      <trkpt lat="48.15247" lon="3.32645">
        <ele>171.9</ele>
        <time>2024-05-15T11:12:39.000Z</time>
      </trkpt>
      <trkpt lat="48.15247" lon="3.32645">
        <ele>171.9</ele>
        <time>2024-05-15T11:12:38.000Z</time>
      </trkpt>
      <trkpt lat="48.15247" lon="3.32645">
        <ele>171.9</ele>
        <time>2024-05-15T11:12:35.000Z</time>
      </trkpt>
      <trkpt lat="48.15247" lon="3.32646">
        <ele>171.9</ele>
        <time>2024-05-15T11:12:33.000Z</time>
      </trkpt>
      <trkpt lat="48.15247" lon="3.32646">
        <ele>171.9</ele>
        <time>2024-05-15T11:12:31.000Z</time>
      </trkpt>
      <trkpt lat="48.15247" lon="3.32647">
        <ele>171.9</ele>
        <time>2024-05-15T11:12:30.000Z</time>
      </trkpt>
      <trkpt lat="48.15246" lon="3.3265">
        <ele>171.9</ele>
        <time>2024-05-15T11:12:29.000Z</time>
      </trkpt>
      <trkpt lat="48.15246" lon="3.32652">
        <ele>172</ele>
        <time>2024-05-15T11:12:28.000Z</time>
      </trkpt>
      <trkpt lat="48.15245" lon="3.32654">
        <ele>171.9</ele>
        <time>2024-05-15T11:12:27.000Z</time>
      </trkpt>
      <trkpt lat="48.15245" lon="3.32655">
        <ele>171.9</ele>
        <time>2024-05-15T11:12:26.000Z</time>
      </trkpt>
      <trkpt lat="48.15245" lon="3.32657">
        <ele>172</ele>
        <time>2024-05-15T11:12:25.000Z</time>
      </trkpt>
      <trkpt lat="48.15244" lon="3.3266">
        <ele>171.9</ele>
        <time>2024-05-15T11:12:22.000Z</time>
      </trkpt>
      <trkpt lat="48.15243" lon="3.32662">
        <ele>171.9</ele>
        <time>2024-05-15T11:12:21.000Z</time>
      </trkpt>
      <trkpt lat="48.15243" lon="3.32663">
        <ele>171.9</ele>
        <time>2024-05-15T11:12:20.000Z</time>
      </trkpt>
      <trkpt lat="48.15243" lon="3.32665">
        <ele>171.9</ele>
        <time>2024-05-15T11:12:15.000Z</time>
      </trkpt>
      <trkpt lat="48.15243" lon="3.32665">
        <ele>171.9</ele>
        <time>2024-05-15T11:12:12.000Z</time>
      </trkpt>
      <trkpt lat="48.15243" lon="3.32665">
        <ele>171.9</ele>
        <time>2024-05-15T11:12:11.000Z</time>
      </trkpt>
      <trkpt lat="48.15243" lon="3.32665">
        <ele>171.9</ele>
        <time>2024-05-15T11:12:10.000Z</time>
      </trkpt>
      <trkpt lat="48.15242" lon="3.32666">
        <ele>171.8</ele>
        <time>2024-05-15T11:12:09.000Z</time>
      </trkpt>
      <trkpt lat="48.15241" lon="3.32667">
        <ele>171.7</ele>
        <time>2024-05-15T11:12:08.000Z</time>
      </trkpt>
      <trkpt lat="48.15239" lon="3.32668">
        <ele>171.4</ele>
        <time>2024-05-15T11:12:07.000Z</time>
      </trkpt>
      <trkpt lat="48.15238" lon="3.32668">
        <ele>171.3</ele>
        <time>2024-05-15T11:12:06.000Z</time>
      </trkpt>
      <trkpt lat="48.15237" lon="3.32668">
        <ele>171.1</ele>
        <time>2024-05-15T11:12:05.000Z</time>
      </trkpt>
      <trkpt lat="48.15236" lon="3.32668">
        <ele>171</ele>
        <time>2024-05-15T11:12:04.000Z</time>
      </trkpt>
      <trkpt lat="48.15235" lon="3.32668">
        <ele>170.8</ele>
        <time>2024-05-15T11:12:03.000Z</time>
      </trkpt>
      <trkpt lat="48.15234" lon="3.32669">
        <ele>170.7</ele>
        <time>2024-05-15T11:12:02.000Z</time>
      </trkpt>
      <trkpt lat="48.15233" lon="3.3267">
        <ele>170.6</ele>
        <time>2024-05-15T11:12:01.000Z</time>
      </trkpt>
      <trkpt lat="48.15232" lon="3.3267">
        <ele>170.4</ele>
        <time>2024-05-15T11:12:00.000Z</time>
      </trkpt>
      <trkpt lat="48.15231" lon="3.32671">
        <ele>170.3</ele>
        <time>2024-05-15T11:11:59.000Z</time>
      </trkpt>
      <trkpt lat="48.1523" lon="3.32671">
        <ele>170.1</ele>
        <time>2024-05-15T11:11:58.000Z</time>
      </trkpt>
      <trkpt lat="48.1523" lon="3.32672">
        <ele>170.1</ele>
        <time>2024-05-15T11:11:57.000Z</time>
      </trkpt>
      <trkpt lat="48.15227" lon="3.32675">
        <ele>169.7</ele>
        <time>2024-05-15T11:11:54.000Z</time>
      </trkpt>
      <trkpt lat="48.15224" lon="3.32678">
        <ele>169.3</ele>
        <time>2024-05-15T11:11:52.000Z</time>
      </trkpt>
      <trkpt lat="48.15224" lon="3.3268">
        <ele>169.3</ele>
        <time>2024-05-15T11:11:51.000Z</time>
      </trkpt>
      <trkpt lat="48.15222" lon="3.32681">
        <ele>168.9</ele>
        <time>2024-05-15T11:11:49.000Z</time>
      </trkpt>
      <trkpt lat="48.15221" lon="3.32684">
        <ele>168.7</ele>
        <time>2024-05-15T11:11:47.000Z</time>
      </trkpt>
      <trkpt lat="48.1522" lon="3.32684">
        <ele>168.5</ele>
        <time>2024-05-15T11:11:46.000Z</time>
      </trkpt>
      <trkpt lat="48.15216" lon="3.32689">
        <ele>167.5</ele>
        <time>2024-05-15T11:11:41.000Z</time>
      </trkpt>
      <trkpt lat="48.15215" lon="3.32691">
        <ele>167.2</ele>
        <time>2024-05-15T11:11:36.000Z</time>
      </trkpt>
      <trkpt lat="48.15214" lon="3.32692">
        <ele>167</ele>
        <time>2024-05-15T11:11:35.000Z</time>
      </trkpt>
      <trkpt lat="48.15214" lon="3.32693">
        <ele>166.9</ele>
        <time>2024-05-15T11:11:34.000Z</time>
      </trkpt>
      <trkpt lat="48.15214" lon="3.32693">
        <ele>166.9</ele>
        <time>2024-05-15T11:11:33.000Z</time>
      </trkpt>
      <trkpt lat="48.15214" lon="3.32693">
        <ele>166.9</ele>
        <time>2024-05-15T11:11:32.000Z</time>
      </trkpt>
      <trkpt lat="48.15213" lon="3.32695">
        <ele>166.7</ele>
        <time>2024-05-15T11:11:31.000Z</time>
      </trkpt>
      <trkpt lat="48.15212" lon="3.32701">
        <ele>166.6</ele>
        <time>2024-05-15T11:11:19.000Z</time>
      </trkpt>
      <trkpt lat="48.15212" lon="3.32702">
        <ele>166.6</ele>
        <time>2024-05-15T11:11:11.000Z</time>
      </trkpt>
      <trkpt lat="48.15212" lon="3.32702">
        <ele>166.6</ele>
        <time>2024-05-15T11:11:03.000Z</time>
      </trkpt>
      <trkpt lat="48.15212" lon="3.32702">
        <ele>166.6</ele>
        <time>2024-05-15T11:10:58.000Z</time>
      </trkpt>
      <trkpt lat="48.15212" lon="3.32702">
        <ele>166.6</ele>
        <time>2024-05-15T11:10:55.000Z</time>
      </trkpt>
      <trkpt lat="48.15212" lon="3.32703">
        <ele>166.6</ele>
        <time>2024-05-15T11:10:51.000Z</time>
      </trkpt>
      <trkpt lat="48.15213" lon="3.32711">
        <ele>167.1</ele>
        <time>2024-05-15T11:10:49.000Z</time>
      </trkpt>
      <trkpt lat="48.15215" lon="3.32716">
        <ele>167.8</ele>
        <time>2024-05-15T11:10:48.000Z</time>
      </trkpt>
      <trkpt lat="48.15217" lon="3.32721">
        <ele>168.5</ele>
        <time>2024-05-15T11:10:47.000Z</time>
      </trkpt>
      <trkpt lat="48.15218" lon="3.32725">
        <ele>168.7</ele>
        <time>2024-05-15T11:10:46.000Z</time>
      </trkpt>
      <trkpt lat="48.15219" lon="3.32729">
        <ele>168.9</ele>
        <time>2024-05-15T11:10:45.000Z</time>
      </trkpt>
      <trkpt lat="48.15219" lon="3.32732">
        <ele>168.8</ele>
        <time>2024-05-15T11:10:44.000Z</time>
      </trkpt>
      <trkpt lat="48.15217" lon="3.32741">
        <ele>167.9</ele>
        <time>2024-05-15T11:10:42.000Z</time>
      </trkpt>
      <trkpt lat="48.15217" lon="3.32745">
        <ele>167.8</ele>
        <time>2024-05-15T11:10:41.000Z</time>
      </trkpt>
      <trkpt lat="48.15217" lon="3.32751">
        <ele>167.7</ele>
        <time>2024-05-15T11:10:40.000Z</time>
      </trkpt>
      <trkpt lat="48.15217" lon="3.32755">
        <ele>167.7</ele>
        <time>2024-05-15T11:10:39.000Z</time>
      </trkpt>
      <trkpt lat="48.15217" lon="3.32759">
        <ele>167.7</ele>
        <time>2024-05-15T11:10:38.000Z</time>
      </trkpt>
      <trkpt lat="48.15218" lon="3.32774">
        <ele>168.1</ele>
        <time>2024-05-15T11:10:35.000Z</time>
      </trkpt>
      <trkpt lat="48.15218" lon="3.32778">
        <ele>168.1</ele>
        <time>2024-05-15T11:10:34.000Z</time>
      </trkpt>
      <trkpt lat="48.15219" lon="3.32783">
        <ele>168.3</ele>
        <time>2024-05-15T11:10:33.000Z</time>
      </trkpt>
      <trkpt lat="48.15222" lon="3.32789">
        <ele>169</ele>
        <time>2024-05-15T11:10:31.000Z</time>
      </trkpt>
      <trkpt lat="48.15223" lon="3.32792">
        <ele>169.1</ele>
        <time>2024-05-15T11:10:30.000Z</time>
      </trkpt>
      <trkpt lat="48.15224" lon="3.32794">
        <ele>169.3</ele>
        <time>2024-05-15T11:10:26.000Z</time>
      </trkpt>
      <trkpt lat="48.15224" lon="3.32795">
        <ele>169.3</ele>
        <time>2024-05-15T11:10:25.000Z</time>
      </trkpt>
      <trkpt lat="48.15224" lon="3.32797">
        <ele>169.3</ele>
        <time>2024-05-15T11:10:24.000Z</time>
      </trkpt>
      <trkpt lat="48.15224" lon="3.328">
        <ele>169.3</ele>
        <time>2024-05-15T11:10:23.000Z</time>
      </trkpt>
      <trkpt lat="48.15224" lon="3.32807">
        <ele>169.3</ele>
        <time>2024-05-15T11:10:21.000Z</time>
      </trkpt>
      <trkpt lat="48.15218" lon="3.32831">
        <ele>168.2</ele>
        <time>2024-05-15T11:10:16.000Z</time>
      </trkpt>
      <trkpt lat="48.15219" lon="3.32834">
        <ele>168.4</ele>
        <time>2024-05-15T11:10:15.000Z</time>
      </trkpt>
      <trkpt lat="48.15219" lon="3.32837">
        <ele>168.6</ele>
        <time>2024-05-15T11:10:14.000Z</time>
      </trkpt>
      <trkpt lat="48.15218" lon="3.32839">
        <ele>168.4</ele>
        <time>2024-05-15T11:10:13.000Z</time>
      </trkpt>
      <trkpt lat="48.15217" lon="3.32842">
        <ele>168.4</ele>
        <time>2024-05-15T11:10:12.000Z</time>
      </trkpt>
      <trkpt lat="48.15213" lon="3.32845">
        <ele>167.8</ele>
        <time>2024-05-15T11:10:05.000Z</time>
      </trkpt>
      <trkpt lat="48.15213" lon="3.32845">
        <ele>167.8</ele>
        <time>2024-05-15T11:09:59.000Z</time>
      </trkpt>
      <trkpt lat="48.15212" lon="3.32845">
        <ele>167.6</ele>
        <time>2024-05-15T11:09:58.000Z</time>
      </trkpt>
      <trkpt lat="48.15211" lon="3.32847">
        <ele>167.5</ele>
        <time>2024-05-15T11:09:57.000Z</time>
      </trkpt>
      <trkpt lat="48.15209" lon="3.3285">
        <ele>167.2</ele>
        <time>2024-05-15T11:09:56.000Z</time>
      </trkpt>
      <trkpt lat="48.15207" lon="3.32861">
        <ele>167.3</ele>
        <time>2024-05-15T11:09:53.000Z</time>
      </trkpt>
      <trkpt lat="48.15207" lon="3.3287">
        <ele>167.3</ele>
        <time>2024-05-15T11:09:52.000Z</time>
      </trkpt>
      <trkpt lat="48.15206" lon="3.3288">
        <ele>167.1</ele>
        <time>2024-05-15T11:09:50.000Z</time>
      </trkpt>
      <trkpt lat="48.15203" lon="3.32897">
        <ele>166.7</ele>
        <time>2024-05-15T11:09:45.000Z</time>
      </trkpt>
      <trkpt lat="48.15202" lon="3.32908">
        <ele>166.9</ele>
        <time>2024-05-15T11:09:42.000Z</time>
      </trkpt>
      <trkpt lat="48.15202" lon="3.32911">
        <ele>166.9</ele>
        <time>2024-05-15T11:09:41.000Z</time>
      </trkpt>
      <trkpt lat="48.15201" lon="3.32913">
        <ele>166.8</ele>
        <time>2024-05-15T11:09:40.000Z</time>
      </trkpt>
      <trkpt lat="48.152" lon="3.32919">
        <ele>166.8</ele>
        <time>2024-05-15T11:09:38.000Z</time>
      </trkpt>
      <trkpt lat="48.15199" lon="3.32924">
        <ele>166.7</ele>
        <time>2024-05-15T11:09:36.000Z</time>
      </trkpt>
      <trkpt lat="48.15198" lon="3.32927">
        <ele>166.5</ele>
        <time>2024-05-15T11:09:35.000Z</time>
      </trkpt>
      <trkpt lat="48.15198" lon="3.32928">
        <ele>166.5</ele>
        <time>2024-05-15T11:09:34.000Z</time>
      </trkpt>
      <trkpt lat="48.15198" lon="3.32929">
        <ele>166.5</ele>
        <time>2024-05-15T11:09:33.000Z</time>
      </trkpt>
      <trkpt lat="48.15198" lon="3.32929">
        <ele>166.5</ele>
        <time>2024-05-15T11:09:32.000Z</time>
      </trkpt>
      <trkpt lat="48.15198" lon="3.32929">
        <ele>166.5</ele>
        <time>2024-05-15T11:09:31.000Z</time>
      </trkpt>
      <trkpt lat="48.15198" lon="3.32929">
        <ele>166.5</ele>
        <time>2024-05-15T11:09:30.000Z</time>
      </trkpt>
      <trkpt lat="48.15198" lon="3.3293">
        <ele>166.5</ele>
        <time>2024-05-15T11:09:27.000Z</time>
      </trkpt>
      <trkpt lat="48.15199" lon="3.32934">
        <ele>166.7</ele>
        <time>2024-05-15T11:09:23.000Z</time>
      </trkpt>
      <trkpt lat="48.15199" lon="3.32934">
        <ele>166.7</ele>
        <time>2024-05-15T11:09:22.000Z</time>
      </trkpt>
      <trkpt lat="48.15199" lon="3.32935">
        <ele>166.7</ele>
        <time>2024-05-15T11:09:21.000Z</time>
      </trkpt>
      <trkpt lat="48.15199" lon="3.32936">
        <ele>166.7</ele>
        <time>2024-05-15T11:09:20.000Z</time>
      </trkpt>
      <trkpt lat="48.15199" lon="3.32938">
        <ele>166.7</ele>
        <time>2024-05-15T11:09:19.000Z</time>
      </trkpt>
      <trkpt lat="48.15201" lon="3.32941">
        <ele>166.9</ele>
        <time>2024-05-15T11:09:16.000Z</time>
      </trkpt>
      <trkpt lat="48.15202" lon="3.32941">
        <ele>167.1</ele>
        <time>2024-05-15T11:09:15.000Z</time>
      </trkpt>
      <trkpt lat="48.15202" lon="3.32943">
        <ele>167.1</ele>
        <time>2024-05-15T11:09:14.000Z</time>
      </trkpt>
      <trkpt lat="48.15203" lon="3.32945">
        <ele>167.2</ele>
        <time>2024-05-15T11:09:12.000Z</time>
      </trkpt>
      <trkpt lat="48.15207" lon="3.32949">
        <ele>167.8</ele>
        <time>2024-05-15T11:09:09.000Z</time>
      </trkpt>
      <trkpt lat="48.15208" lon="3.32951">
        <ele>168</ele>
        <time>2024-05-15T11:09:02.000Z</time>
      </trkpt>
      <trkpt lat="48.15208" lon="3.32951">
        <ele>168</ele>
        <time>2024-05-15T11:08:59.000Z</time>
      </trkpt>
      <trkpt lat="48.15208" lon="3.3295">
        <ele>168</ele>
        <time>2024-05-15T11:08:58.000Z</time>
      </trkpt>
      <trkpt lat="48.15208" lon="3.32951">
        <ele>168</ele>
        <time>2024-05-15T11:08:57.000Z</time>
      </trkpt>
      <trkpt lat="48.15208" lon="3.32951">
        <ele>168</ele>
        <time>2024-05-15T11:08:56.000Z</time>
      </trkpt>
      <trkpt lat="48.15207" lon="3.32951">
        <ele>167.8</ele>
        <time>2024-05-15T11:08:55.000Z</time>
      </trkpt>
      <trkpt lat="48.15206" lon="3.32955">
        <ele>167.7</ele>
        <time>2024-05-15T11:08:52.000Z</time>
      </trkpt>
      <trkpt lat="48.15205" lon="3.32957">
        <ele>167.5</ele>
        <time>2024-05-15T11:08:51.000Z</time>
      </trkpt>
      <trkpt lat="48.15205" lon="3.32959">
        <ele>167.5</ele>
        <time>2024-05-15T11:08:50.000Z</time>
      </trkpt>
      <trkpt lat="48.15203" lon="3.32963">
        <ele>167.2</ele>
        <time>2024-05-15T11:08:48.000Z</time>
      </trkpt>
      <trkpt lat="48.15202" lon="3.32964">
        <ele>167.1</ele>
        <time>2024-05-15T11:08:47.000Z</time>
      </trkpt>
      <trkpt lat="48.152" lon="3.3297">
        <ele>166.8</ele>
        <time>2024-05-15T11:08:44.000Z</time>
      </trkpt>
      <trkpt lat="48.15199" lon="3.32972">
        <ele>166.7</ele>
        <time>2024-05-15T11:08:43.000Z</time>
      </trkpt>
      <trkpt lat="48.15196" lon="3.32979">
        <ele>166.5</ele>
        <time>2024-05-15T11:08:39.000Z</time>
      </trkpt>
      <trkpt lat="48.15196" lon="3.32981">
        <ele>166.5</ele>
        <time>2024-05-15T11:08:38.000Z</time>
      </trkpt>
      <trkpt lat="48.15196" lon="3.32988">
        <ele>166.8</ele>
        <time>2024-05-15T11:08:34.000Z</time>
      </trkpt>
      <trkpt lat="48.15196" lon="3.32989">
        <ele>166.8</ele>
        <time>2024-05-15T11:08:33.000Z</time>
      </trkpt>
      <trkpt lat="48.15196" lon="3.3299">
        <ele>166.9</ele>
        <time>2024-05-15T11:08:32.000Z</time>
      </trkpt>
      <trkpt lat="48.15195" lon="3.32992">
        <ele>166.8</ele>
        <time>2024-05-15T11:08:31.000Z</time>
      </trkpt>
      <trkpt lat="48.15194" lon="3.32996">
        <ele>166.8</ele>
        <time>2024-05-15T11:08:28.000Z</time>
      </trkpt>
      <trkpt lat="48.15193" lon="3.32999">
        <ele>166.8</ele>
        <time>2024-05-15T11:08:26.000Z</time>
      </trkpt>
      <trkpt lat="48.15194" lon="3.33003">
        <ele>167</ele>
        <time>2024-05-15T11:08:20.000Z</time>
      </trkpt>
      <trkpt lat="48.15194" lon="3.33003">
        <ele>167</ele>
        <time>2024-05-15T11:08:19.000Z</time>
      </trkpt>
      <trkpt lat="48.15195" lon="3.33003">
        <ele>167.2</ele>
        <time>2024-05-15T11:08:11.000Z</time>
      </trkpt>
      <trkpt lat="48.15195" lon="3.33003">
        <ele>167.2</ele>
        <time>2024-05-15T11:07:56.000Z</time>
      </trkpt>
      <trkpt lat="48.15195" lon="3.33003">
        <ele>167.2</ele>
        <time>2024-05-15T11:07:53.000Z</time>
      </trkpt>
      <trkpt lat="48.15195" lon="3.33003">
        <ele>167.2</ele>
        <time>2024-05-15T11:07:46.000Z</time>
      </trkpt>
      <trkpt lat="48.15195" lon="3.33003">
        <ele>167.2</ele>
        <time>2024-05-15T11:07:45.000Z</time>
      </trkpt>
      <trkpt lat="48.15195" lon="3.33003">
        <ele>167.2</ele>
        <time>2024-05-15T11:07:44.000Z</time>
      </trkpt>
      <trkpt lat="48.15195" lon="3.33003">
        <ele>167.2</ele>
        <time>2024-05-15T11:07:43.000Z</time>
      </trkpt>
      <trkpt lat="48.15196" lon="3.33002">
        <ele>167.3</ele>
        <time>2024-05-15T11:07:42.000Z</time>
      </trkpt>
      <trkpt lat="48.15198" lon="3.33">
        <ele>167.5</ele>
        <time>2024-05-15T11:07:41.000Z</time>
      </trkpt>
      <trkpt lat="48.15202" lon="3.32997">
        <ele>168</ele>
        <time>2024-05-15T11:07:40.000Z</time>
      </trkpt>
      <trkpt lat="48.15204" lon="3.32995">
        <ele>168.2</ele>
        <time>2024-05-15T11:07:39.000Z</time>
      </trkpt>
      <trkpt lat="48.15205" lon="3.32992">
        <ele>168.2</ele>
        <time>2024-05-15T11:07:38.000Z</time>
      </trkpt>
      <trkpt lat="48.15213" lon="3.32983">
        <ele>169.1</ele>
        <time>2024-05-15T11:07:35.000Z</time>
      </trkpt>
      <trkpt lat="48.15214" lon="3.32969">
        <ele>168.8</ele>
        <time>2024-05-15T11:07:32.000Z</time>
      </trkpt>
      <trkpt lat="48.15215" lon="3.32966">
        <ele>169</ele>
        <time>2024-05-15T11:07:31.000Z</time>
      </trkpt>
      <trkpt lat="48.15217" lon="3.32964">
        <ele>169.2</ele>
        <time>2024-05-15T11:07:30.000Z</time>
      </trkpt>
      <trkpt lat="48.15218" lon="3.32961">
        <ele>169.4</ele>
        <time>2024-05-15T11:07:29.000Z</time>
      </trkpt>
      <trkpt lat="48.15219" lon="3.32958">
        <ele>169.5</ele>
        <time>2024-05-15T11:07:28.000Z</time>
      </trkpt>
      <trkpt lat="48.15221" lon="3.32953">
        <ele>169.8</ele>
        <time>2024-05-15T11:07:26.000Z</time>
      </trkpt>
      <trkpt lat="48.15222" lon="3.32948">
        <ele>170</ele>
        <time>2024-05-15T11:07:24.000Z</time>
      </trkpt>
      <trkpt lat="48.15222" lon="3.32945">
        <ele>170</ele>
        <time>2024-05-15T11:07:23.000Z</time>
      </trkpt>
      <trkpt lat="48.15223" lon="3.32943">
        <ele>170.1</ele>
        <time>2024-05-15T11:07:22.000Z</time>
      </trkpt>
      <trkpt lat="48.15224" lon="3.32941">
        <ele>170.3</ele>
        <time>2024-05-15T11:07:21.000Z</time>
      </trkpt>
      <trkpt lat="48.15225" lon="3.32938">
        <ele>170.4</ele>
        <time>2024-05-15T11:07:20.000Z</time>
      </trkpt>
      <trkpt lat="48.15226" lon="3.32935">
        <ele>170.5</ele>
        <time>2024-05-15T11:07:19.000Z</time>
      </trkpt>
      <trkpt lat="48.15229" lon="3.32929">
        <ele>171</ele>
        <time>2024-05-15T11:07:17.000Z</time>
      </trkpt>
      <trkpt lat="48.15231" lon="3.32926">
        <ele>171.3</ele>
        <time>2024-05-15T11:07:16.000Z</time>
      </trkpt>
      <trkpt lat="48.15233" lon="3.32923">
        <ele>171.6</ele>
        <time>2024-05-15T11:07:15.000Z</time>
      </trkpt>
      <trkpt lat="48.15236" lon="3.32921">
        <ele>172</ele>
        <time>2024-05-15T11:07:14.000Z</time>
      </trkpt>
      <trkpt lat="48.1524" lon="3.32913">
        <ele>172.6</ele>
        <time>2024-05-15T11:07:10.000Z</time>
      </trkpt>
      <trkpt lat="48.15241" lon="3.32912">
        <ele>172.7</ele>
        <time>2024-05-15T11:07:09.000Z</time>
      </trkpt>
      <trkpt lat="48.15241" lon="3.32911">
        <ele>172.7</ele>
        <time>2024-05-15T11:07:02.000Z</time>
      </trkpt>
      <trkpt lat="48.15241" lon="3.32911">
        <ele>172.7</ele>
        <time>2024-05-15T11:06:47.000Z</time>
      </trkpt>
      <trkpt lat="48.15241" lon="3.32911">
        <ele>172.7</ele>
        <time>2024-05-15T11:06:37.000Z</time>
      </trkpt>
      <trkpt lat="48.15241" lon="3.32911">
        <ele>172.7</ele>
        <time>2024-05-15T11:06:30.000Z</time>
      </trkpt>
      <trkpt lat="48.15241" lon="3.32911">
        <ele>172.7</ele>
        <time>2024-05-15T11:06:28.000Z</time>
      </trkpt>
      <trkpt lat="48.15241" lon="3.32911">
        <ele>172.7</ele>
        <time>2024-05-15T11:06:19.000Z</time>
      </trkpt>
      <trkpt lat="48.15241" lon="3.32911">
        <ele>172.7</ele>
        <time>2024-05-15T11:06:18.000Z</time>
      </trkpt>
      <trkpt lat="48.15241" lon="3.32911">
        <ele>172.7</ele>
        <time>2024-05-15T11:06:17.000Z</time>
      </trkpt>
      <trkpt lat="48.15242" lon="3.32914">
        <ele>172.8</ele>
        <time>2024-05-15T11:06:16.000Z</time>
      </trkpt>
      <trkpt lat="48.15244" lon="3.32916">
        <ele>173.1</ele>
        <time>2024-05-15T11:06:15.000Z</time>
      </trkpt>
      <trkpt lat="48.15245" lon="3.32917">
        <ele>173.3</ele>
        <time>2024-05-15T11:06:14.000Z</time>
      </trkpt>
      <trkpt lat="48.15249" lon="3.32918">
        <ele>173.9</ele>
        <time>2024-05-15T11:06:12.000Z</time>
      </trkpt>
      <trkpt lat="48.15251" lon="3.32919">
        <ele>174.1</ele>
        <time>2024-05-15T11:06:11.000Z</time>
      </trkpt>
      <trkpt lat="48.15253" lon="3.32919">
        <ele>174.2</ele>
        <time>2024-05-15T11:06:10.000Z</time>
      </trkpt>
      <trkpt lat="48.15253" lon="3.32919">
        <ele>174.2</ele>
        <time>2024-05-15T11:06:09.000Z</time>
      </trkpt>
      <trkpt lat="48.15254" lon="3.32919">
        <ele>174.3</ele>
        <time>2024-05-15T11:06:08.000Z</time>
      </trkpt>
      <trkpt lat="48.15254" lon="3.32919">
        <ele>174.3</ele>
        <time>2024-05-15T11:06:07.000Z</time>
      </trkpt>
      <trkpt lat="48.15256" lon="3.3292">
        <ele>174.4</ele>
        <time>2024-05-15T11:06:06.000Z</time>
      </trkpt>
      <trkpt lat="48.15259" lon="3.32924">
        <ele>174.6</ele>
        <time>2024-05-15T11:06:02.000Z</time>
      </trkpt>
      <trkpt lat="48.1526" lon="3.32924">
        <ele>174.6</ele>
        <time>2024-05-15T11:06:01.000Z</time>
      </trkpt>
      <trkpt lat="48.15261" lon="3.32924">
        <ele>174.7</ele>
        <time>2024-05-15T11:06:00.000Z</time>
      </trkpt>
      <trkpt lat="48.15261" lon="3.32925">
        <ele>174.7</ele>
        <time>2024-05-15T11:05:59.000Z</time>
      </trkpt>
      <trkpt lat="48.15261" lon="3.32925">
        <ele>174.7</ele>
        <time>2024-05-15T11:05:58.000Z</time>
      </trkpt>
      <trkpt lat="48.15261" lon="3.32926">
        <ele>174.7</ele>
        <time>2024-05-15T11:05:57.000Z</time>
      </trkpt>
      <trkpt lat="48.15261" lon="3.32926">
        <ele>174.7</ele>
        <time>2024-05-15T11:05:56.000Z</time>
      </trkpt>
      <trkpt lat="48.15261" lon="3.32927">
        <ele>174.6</ele>
        <time>2024-05-15T11:05:55.000Z</time>
      </trkpt>
      <trkpt lat="48.15261" lon="3.32928">
        <ele>174.6</ele>
        <time>2024-05-15T11:05:54.000Z</time>
      </trkpt>
      <trkpt lat="48.1526" lon="3.32932">
        <ele>174.5</ele>
        <time>2024-05-15T11:05:52.000Z</time>
      </trkpt>
      <trkpt lat="48.1526" lon="3.32932">
        <ele>174.5</ele>
        <time>2024-05-15T11:05:51.000Z</time>
      </trkpt>
      <trkpt lat="48.1526" lon="3.32932">
        <ele>174.5</ele>
        <time>2024-05-15T11:05:50.000Z</time>
      </trkpt>
      <trkpt lat="48.15261" lon="3.32935">
        <ele>174.5</ele>
        <time>2024-05-15T11:05:48.000Z</time>
      </trkpt>
      <trkpt lat="48.15263" lon="3.32941">
        <ele>174.5</ele>
        <time>2024-05-15T11:05:46.000Z</time>
      </trkpt>
      <trkpt lat="48.15263" lon="3.32944">
        <ele>174.5</ele>
        <time>2024-05-15T11:05:45.000Z</time>
      </trkpt>
      <trkpt lat="48.15265" lon="3.32946">
        <ele>174.5</ele>
        <time>2024-05-15T11:05:44.000Z</time>
      </trkpt>
      <trkpt lat="48.15266" lon="3.32948">
        <ele>174.6</ele>
        <time>2024-05-15T11:05:43.000Z</time>
      </trkpt>
      <trkpt lat="48.1527" lon="3.32956">
        <ele>174.7</ele>
        <time>2024-05-15T11:05:40.000Z</time>
      </trkpt>
      <trkpt lat="48.15271" lon="3.32962">
        <ele>174.8</ele>
        <time>2024-05-15T11:05:38.000Z</time>
      </trkpt>
      <trkpt lat="48.15272" lon="3.32965">
        <ele>174.8</ele>
        <time>2024-05-15T11:05:35.000Z</time>
      </trkpt>
      <trkpt lat="48.15272" lon="3.32965">
        <ele>174.8</ele>
        <time>2024-05-15T11:05:29.000Z</time>
      </trkpt>
      <trkpt lat="48.15272" lon="3.32965">
        <ele>174.8</ele>
        <time>2024-05-15T11:05:23.000Z</time>
      </trkpt>
      <trkpt lat="48.15272" lon="3.32965">
        <ele>174.8</ele>
        <time>2024-05-15T11:05:21.000Z</time>
      </trkpt>
      <trkpt lat="48.15272" lon="3.32965">
        <ele>174.8</ele>
        <time>2024-05-15T11:05:20.000Z</time>
      </trkpt>
      <trkpt lat="48.15272" lon="3.32963">
        <ele>174.8</ele>
        <time>2024-05-15T11:05:19.000Z</time>
      </trkpt>
      <trkpt lat="48.15288" lon="3.32967">
        <ele>175.7</ele>
        <time>2024-05-15T11:05:13.000Z</time>
      </trkpt>
      <trkpt lat="48.15292" lon="3.32967">
        <ele>176</ele>
        <time>2024-05-15T11:05:12.000Z</time>
      </trkpt>
      <trkpt lat="48.15293" lon="3.32967">
        <ele>176.1</ele>
        <time>2024-05-15T11:05:11.000Z</time>
      </trkpt>
      <trkpt lat="48.15296" lon="3.32967">
        <ele>176.3</ele>
        <time>2024-05-15T11:05:10.000Z</time>
      </trkpt>
      <trkpt lat="48.15298" lon="3.32966">
        <ele>176.5</ele>
        <time>2024-05-15T11:05:09.000Z</time>
      </trkpt>
      <trkpt lat="48.153" lon="3.32966">
        <ele>176.6</ele>
        <time>2024-05-15T11:05:08.000Z</time>
      </trkpt>
      <trkpt lat="48.15307" lon="3.32965">
        <ele>177</ele>
        <time>2024-05-15T11:05:06.000Z</time>
      </trkpt>
      <trkpt lat="48.15315" lon="3.32968">
        <ele>177</ele>
        <time>2024-05-15T11:05:03.000Z</time>
      </trkpt>
      <trkpt lat="48.15317" lon="3.32968">
        <ele>177</ele>
        <time>2024-05-15T11:05:02.000Z</time>
      </trkpt>
      <trkpt lat="48.15321" lon="3.3297">
        <ele>177</ele>
        <time>2024-05-15T11:05:01.000Z</time>
      </trkpt>
      <trkpt lat="48.15323" lon="3.32971">
        <ele>177</ele>
        <time>2024-05-15T11:05:00.000Z</time>
      </trkpt>
      <trkpt lat="48.15338" lon="3.32976">
        <ele>177</ele>
        <time>2024-05-15T11:04:56.000Z</time>
      </trkpt>
      <trkpt lat="48.15343" lon="3.32978">
        <ele>177</ele>
        <time>2024-05-15T11:04:54.000Z</time>
      </trkpt>
      <trkpt lat="48.15349" lon="3.32982">
        <ele>177</ele>
        <time>2024-05-15T11:04:51.000Z</time>
      </trkpt>
      <trkpt lat="48.1535" lon="3.32985">
        <ele>177</ele>
        <time>2024-05-15T11:04:50.000Z</time>
      </trkpt>
      <trkpt lat="48.15361" lon="3.32993">
        <ele>177</ele>
        <time>2024-05-15T11:04:45.000Z</time>
      </trkpt>
      <trkpt lat="48.15363" lon="3.32994">
        <ele>177</ele>
        <time>2024-05-15T11:04:44.000Z</time>
      </trkpt>
      <trkpt lat="48.15365" lon="3.32995">
        <ele>177</ele>
        <time>2024-05-15T11:04:43.000Z</time>
      </trkpt>
      <trkpt lat="48.15367" lon="3.32996">
        <ele>177</ele>
        <time>2024-05-15T11:04:42.000Z</time>
      </trkpt>
      <trkpt lat="48.15368" lon="3.32997">
        <ele>177</ele>
        <time>2024-05-15T11:04:41.000Z</time>
      </trkpt>
      <trkpt lat="48.15369" lon="3.32999">
        <ele>177</ele>
        <time>2024-05-15T11:04:40.000Z</time>
      </trkpt>
      <trkpt lat="48.15371" lon="3.33001">
        <ele>177</ele>
        <time>2024-05-15T11:04:39.000Z</time>
      </trkpt>
      <trkpt lat="48.15373" lon="3.33004">
        <ele>177</ele>
        <time>2024-05-15T11:04:36.000Z</time>
      </trkpt>
      <trkpt lat="48.15375" lon="3.33004">
        <ele>177</ele>
        <time>2024-05-15T11:04:35.000Z</time>
      </trkpt>
      <trkpt lat="48.15378" lon="3.33003">
        <ele>177</ele>
        <time>2024-05-15T11:04:34.000Z</time>
      </trkpt>
      <trkpt lat="48.15379" lon="3.33001">
        <ele>177</ele>
        <time>2024-05-15T11:04:33.000Z</time>
      </trkpt>
      <trkpt lat="48.15379" lon="3.32998">
        <ele>177</ele>
        <time>2024-05-15T11:04:32.000Z</time>
      </trkpt>
      <trkpt lat="48.15384" lon="3.32984">
        <ele>177</ele>
        <time>2024-05-15T11:04:28.000Z</time>
      </trkpt>
      <trkpt lat="48.15385" lon="3.3298">
        <ele>177</ele>
        <time>2024-05-15T11:04:27.000Z</time>
      </trkpt>
      <trkpt lat="48.15386" lon="3.32978">
        <ele>177</ele>
        <time>2024-05-15T11:04:26.000Z</time>
      </trkpt>
      <trkpt lat="48.15387" lon="3.32977">
        <ele>177</ele>
        <time>2024-05-15T11:04:25.000Z</time>
      </trkpt>
      <trkpt lat="48.15388" lon="3.32975">
        <ele>177</ele>
        <time>2024-05-15T11:04:24.000Z</time>
      </trkpt>
      <trkpt lat="48.15389" lon="3.32974">
        <ele>177</ele>
        <time>2024-05-15T11:04:23.000Z</time>
      </trkpt>
      <trkpt lat="48.15389" lon="3.32974">
        <ele>177</ele>
        <time>2024-05-15T11:04:22.000Z</time>
      </trkpt>
      <trkpt lat="48.1539" lon="3.32974">
        <ele>177</ele>
        <time>2024-05-15T11:04:21.000Z</time>
      </trkpt>
      <trkpt lat="48.15391" lon="3.32973">
        <ele>177</ele>
        <time>2024-05-15T11:04:20.000Z</time>
      </trkpt>
      <trkpt lat="48.15392" lon="3.32972">
        <ele>177</ele>
        <time>2024-05-15T11:04:19.000Z</time>
      </trkpt>
      <trkpt lat="48.15394" lon="3.32971">
        <ele>177</ele>
        <time>2024-05-15T11:04:18.000Z</time>
      </trkpt>
      <trkpt lat="48.15395" lon="3.3297">
        <ele>177</ele>
        <time>2024-05-15T11:04:17.000Z</time>
      </trkpt>
      <trkpt lat="48.15396" lon="3.32968">
        <ele>177</ele>
        <time>2024-05-15T11:04:16.000Z</time>
      </trkpt>
      <trkpt lat="48.15397" lon="3.32966">
        <ele>176.9</ele>
        <time>2024-05-15T11:04:15.000Z</time>
      </trkpt>
      <trkpt lat="48.15399" lon="3.32965">
        <ele>176.9</ele>
        <time>2024-05-15T11:04:14.000Z</time>
      </trkpt>
      <trkpt lat="48.15401" lon="3.32964">
        <ele>176.9</ele>
        <time>2024-05-15T11:04:13.000Z</time>
      </trkpt>
      <trkpt lat="48.15401" lon="3.32964">
        <ele>176.9</ele>
        <time>2024-05-15T11:04:12.000Z</time>
      </trkpt>
      <trkpt lat="48.15401" lon="3.32964">
        <ele>176.9</ele>
        <time>2024-05-15T11:04:11.000Z</time>
      </trkpt>
      <trkpt lat="48.15402" lon="3.32964">
        <ele>176.9</ele>
        <time>2024-05-15T11:04:10.000Z</time>
      </trkpt>
      <trkpt lat="48.15403" lon="3.32963">
        <ele>176.8</ele>
        <time>2024-05-15T11:04:09.000Z</time>
      </trkpt>
      <trkpt lat="48.1541" lon="3.32962">
        <ele>176.7</ele>
        <time>2024-05-15T11:04:06.000Z</time>
      </trkpt>
      <trkpt lat="48.15419" lon="3.32958">
        <ele>176.4</ele>
        <time>2024-05-15T11:04:02.000Z</time>
      </trkpt>
      <trkpt lat="48.15421" lon="3.32957">
        <ele>176.4</ele>
        <time>2024-05-15T11:04:01.000Z</time>
      </trkpt>
      <trkpt lat="48.15423" lon="3.32957">
        <ele>176.3</ele>
        <time>2024-05-15T11:04:00.000Z</time>
      </trkpt>
      <trkpt lat="48.15424" lon="3.32956">
        <ele>176.3</ele>
        <time>2024-05-15T11:03:59.000Z</time>
      </trkpt>
      <trkpt lat="48.15425" lon="3.32954">
        <ele>176.2</ele>
        <time>2024-05-15T11:03:58.000Z</time>
      </trkpt>
      <trkpt lat="48.1543" lon="3.32957">
        <ele>176.2</ele>
        <time>2024-05-15T11:03:52.000Z</time>
      </trkpt>
      <trkpt lat="48.15431" lon="3.32957">
        <ele>176.2</ele>
        <time>2024-05-15T11:03:49.000Z</time>
      </trkpt>
      <trkpt lat="48.15432" lon="3.32957">
        <ele>176.2</ele>
        <time>2024-05-15T11:03:47.000Z</time>
      </trkpt>
      <trkpt lat="48.15434" lon="3.32958">
        <ele>176.2</ele>
        <time>2024-05-15T11:03:46.000Z</time>
      </trkpt>
      <trkpt lat="48.15436" lon="3.32959">
        <ele>176.2</ele>
        <time>2024-05-15T11:03:42.000Z</time>
      </trkpt>
      <trkpt lat="48.15437" lon="3.32959">
        <ele>176.1</ele>
        <time>2024-05-15T11:03:41.000Z</time>
      </trkpt>
      <trkpt lat="48.15438" lon="3.32958">
        <ele>176.1</ele>
        <time>2024-05-15T11:03:40.000Z</time>
      </trkpt>
      <trkpt lat="48.15443" lon="3.32957">
        <ele>176</ele>
        <time>2024-05-15T11:03:38.000Z</time>
      </trkpt>
      <trkpt lat="48.15446" lon="3.32956">
        <ele>176</ele>
        <time>2024-05-15T11:03:37.000Z</time>
      </trkpt>
      <trkpt lat="48.15449" lon="3.32956">
        <ele>175.9</ele>
        <time>2024-05-15T11:03:36.000Z</time>
      </trkpt>
      <trkpt lat="48.15457" lon="3.32954">
        <ele>175.7</ele>
        <time>2024-05-15T11:03:33.000Z</time>
      </trkpt>
      <trkpt lat="48.1546" lon="3.32953">
        <ele>175.6</ele>
        <time>2024-05-15T11:03:32.000Z</time>
      </trkpt>
      <trkpt lat="48.15463" lon="3.32952">
        <ele>175.5</ele>
        <time>2024-05-15T11:03:31.000Z</time>
      </trkpt>
      <trkpt lat="48.15464" lon="3.32951">
        <ele>175.5</ele>
        <time>2024-05-15T11:03:30.000Z</time>
      </trkpt>
      <trkpt lat="48.15467" lon="3.32951">
        <ele>175.4</ele>
        <time>2024-05-15T11:03:27.000Z</time>
      </trkpt>
      <trkpt lat="48.15471" lon="3.32951">
        <ele>175.3</ele>
        <time>2024-05-15T11:03:23.000Z</time>
      </trkpt>
      <trkpt lat="48.15471" lon="3.32951">
        <ele>175.3</ele>
        <time>2024-05-15T11:03:22.000Z</time>
      </trkpt>
      <trkpt lat="48.15474" lon="3.32951">
        <ele>175.2</ele>
        <time>2024-05-15T11:03:20.000Z</time>
      </trkpt>
      <trkpt lat="48.15475" lon="3.32951">
        <ele>175.2</ele>
        <time>2024-05-15T11:03:19.000Z</time>
      </trkpt>
      <trkpt lat="48.15477" lon="3.32951">
        <ele>175.2</ele>
        <time>2024-05-15T11:03:18.000Z</time>
      </trkpt>
      <trkpt lat="48.15481" lon="3.32952">
        <ele>175.2</ele>
        <time>2024-05-15T11:03:16.000Z</time>
      </trkpt>
      <trkpt lat="48.15492" lon="3.3295">
        <ele>175.1</ele>
        <time>2024-05-15T11:03:13.000Z</time>
      </trkpt>
      <trkpt lat="48.15494" lon="3.32949">
        <ele>175</ele>
        <time>2024-05-15T11:03:12.000Z</time>
      </trkpt>
      <trkpt lat="48.15496" lon="3.32948">
        <ele>175</ele>
        <time>2024-05-15T11:03:11.000Z</time>
      </trkpt>
      <trkpt lat="48.15498" lon="3.32947">
        <ele>175</ele>
        <time>2024-05-15T11:03:10.000Z</time>
      </trkpt>
      <trkpt lat="48.155" lon="3.32946">
        <ele>175</ele>
        <time>2024-05-15T11:03:09.000Z</time>
      </trkpt>
      <trkpt lat="48.15502" lon="3.32946">
        <ele>174.9</ele>
        <time>2024-05-15T11:03:08.000Z</time>
      </trkpt>
      <trkpt lat="48.15505" lon="3.32944">
        <ele>174.8</ele>
        <time>2024-05-15T11:03:06.000Z</time>
      </trkpt>
      <trkpt lat="48.15506" lon="3.32941">
        <ele>174.7</ele>
        <time>2024-05-15T11:03:05.000Z</time>
      </trkpt>
      <trkpt lat="48.15507" lon="3.32938">
        <ele>174.5</ele>
        <time>2024-05-15T11:03:04.000Z</time>
      </trkpt>
      <trkpt lat="48.15509" lon="3.32935">
        <ele>174.3</ele>
        <time>2024-05-15T11:03:03.000Z</time>
      </trkpt>
      <trkpt lat="48.1551" lon="3.32932">
        <ele>174.2</ele>
        <time>2024-05-15T11:03:02.000Z</time>
      </trkpt>
      <trkpt lat="48.15512" lon="3.3293">
        <ele>174</ele>
        <time>2024-05-15T11:03:01.000Z</time>
      </trkpt>
      <trkpt lat="48.15514" lon="3.32929">
        <ele>173.9</ele>
        <time>2024-05-15T11:03:00.000Z</time>
      </trkpt>
      <trkpt lat="48.15516" lon="3.32927">
        <ele>173.8</ele>
        <time>2024-05-15T11:02:58.000Z</time>
      </trkpt>
      <trkpt lat="48.15518" lon="3.32925">
        <ele>173.7</ele>
        <time>2024-05-15T11:02:57.000Z</time>
      </trkpt>
      <trkpt lat="48.1552" lon="3.32923">
        <ele>173.5</ele>
        <time>2024-05-15T11:02:56.000Z</time>
      </trkpt>
      <trkpt lat="48.15521" lon="3.32921">
        <ele>173.4</ele>
        <time>2024-05-15T11:02:55.000Z</time>
      </trkpt>
      <trkpt lat="48.15523" lon="3.32918">
        <ele>173.2</ele>
        <time>2024-05-15T11:02:54.000Z</time>
      </trkpt>
      <trkpt lat="48.15524" lon="3.32917">
        <ele>173.1</ele>
        <time>2024-05-15T11:02:53.000Z</time>
      </trkpt>
      <trkpt lat="48.15526" lon="3.32918">
        <ele>173.1</ele>
        <time>2024-05-15T11:02:52.000Z</time>
      </trkpt>
      <trkpt lat="48.15531" lon="3.32918">
        <ele>173</ele>
        <time>2024-05-15T11:02:50.000Z</time>
      </trkpt>
      <trkpt lat="48.15533" lon="3.32916">
        <ele>173</ele>
        <time>2024-05-15T11:02:49.000Z</time>
      </trkpt>
      <trkpt lat="48.15538" lon="3.32915">
        <ele>173</ele>
        <time>2024-05-15T11:02:47.000Z</time>
      </trkpt>
      <trkpt lat="48.15543" lon="3.32917">
        <ele>173</ele>
        <time>2024-05-15T11:02:46.000Z</time>
      </trkpt>
      <trkpt lat="48.15546" lon="3.32918">
        <ele>173</ele>
        <time>2024-05-15T11:02:45.000Z</time>
      </trkpt>
      <trkpt lat="48.15548" lon="3.32919">
        <ele>173.1</ele>
        <time>2024-05-15T11:02:44.000Z</time>
      </trkpt>
      <trkpt lat="48.15551" lon="3.3292">
        <ele>173.1</ele>
        <time>2024-05-15T11:02:43.000Z</time>
      </trkpt>
      <trkpt lat="48.15554" lon="3.3292">
        <ele>173.1</ele>
        <time>2024-05-15T11:02:42.000Z</time>
      </trkpt>
      <trkpt lat="48.15556" lon="3.32919">
        <ele>173.1</ele>
        <time>2024-05-15T11:02:41.000Z</time>
      </trkpt>
      <trkpt lat="48.15557" lon="3.32918">
        <ele>173</ele>
        <time>2024-05-15T11:02:40.000Z</time>
      </trkpt>
      <trkpt lat="48.15559" lon="3.32916">
        <ele>172.9</ele>
        <time>2024-05-15T11:02:39.000Z</time>
      </trkpt>
      <trkpt lat="48.15563" lon="3.32916">
        <ele>172.7</ele>
        <time>2024-05-15T11:02:37.000Z</time>
      </trkpt>
      <trkpt lat="48.15566" lon="3.32916">
        <ele>172.6</ele>
        <time>2024-05-15T11:02:36.000Z</time>
      </trkpt>
      <trkpt lat="48.15568" lon="3.32915">
        <ele>172.5</ele>
        <time>2024-05-15T11:02:35.000Z</time>
      </trkpt>
      <trkpt lat="48.15569" lon="3.32914">
        <ele>172.4</ele>
        <time>2024-05-15T11:02:34.000Z</time>
      </trkpt>
      <trkpt lat="48.15571" lon="3.32911">
        <ele>172.2</ele>
        <time>2024-05-15T11:02:32.000Z</time>
      </trkpt>
      <trkpt lat="48.15574" lon="3.32909">
        <ele>172.1</ele>
        <time>2024-05-15T11:02:29.000Z</time>
      </trkpt>
      <trkpt lat="48.15577" lon="3.32911">
        <ele>172</ele>
        <time>2024-05-15T11:02:22.000Z</time>
      </trkpt>
      <trkpt lat="48.15577" lon="3.32911">
        <ele>172</ele>
        <time>2024-05-15T11:02:20.000Z</time>
      </trkpt>
      <trkpt lat="48.15577" lon="3.32911">
        <ele>172</ele>
        <time>2024-05-15T11:02:19.000Z</time>
      </trkpt>
      <trkpt lat="48.15577" lon="3.32912">
        <ele>172.1</ele>
        <time>2024-05-15T11:02:18.000Z</time>
      </trkpt>
      <trkpt lat="48.15578" lon="3.32914">
        <ele>172.1</ele>
        <time>2024-05-15T11:02:17.000Z</time>
      </trkpt>
      <trkpt lat="48.15578" lon="3.32914">
        <ele>172.1</ele>
        <time>2024-05-15T11:02:16.000Z</time>
      </trkpt>
      <trkpt lat="48.15579" lon="3.32917">
        <ele>172.2</ele>
        <time>2024-05-15T11:02:14.000Z</time>
      </trkpt>
      <trkpt lat="48.1558" lon="3.32919">
        <ele>172.2</ele>
        <time>2024-05-15T11:02:13.000Z</time>
      </trkpt>
      <trkpt lat="48.15584" lon="3.32928">
        <ele>172.4</ele>
        <time>2024-05-15T11:02:09.000Z</time>
      </trkpt>
      <trkpt lat="48.15585" lon="3.3293">
        <ele>172.4</ele>
        <time>2024-05-15T11:02:08.000Z</time>
      </trkpt>
      <trkpt lat="48.15586" lon="3.32932">
        <ele>172.5</ele>
        <time>2024-05-15T11:02:07.000Z</time>
      </trkpt>
      <trkpt lat="48.15587" lon="3.32934">
        <ele>172.5</ele>
        <time>2024-05-15T11:02:06.000Z</time>
      </trkpt>
      <trkpt lat="48.15588" lon="3.32936">
        <ele>172.5</ele>
        <time>2024-05-15T11:02:05.000Z</time>
      </trkpt>
      <trkpt lat="48.15588" lon="3.32938">
        <ele>172.6</ele>
        <time>2024-05-15T11:02:04.000Z</time>
      </trkpt>
      <trkpt lat="48.15589" lon="3.32939">
        <ele>172.6</ele>
        <time>2024-05-15T11:02:03.000Z</time>
      </trkpt>
      <trkpt lat="48.15589" lon="3.32941">
        <ele>172.7</ele>
        <time>2024-05-15T11:02:02.000Z</time>
      </trkpt>
      <trkpt lat="48.1559" lon="3.32943">
        <ele>172.7</ele>
        <time>2024-05-15T11:02:01.000Z</time>
      </trkpt>
      <trkpt lat="48.15591" lon="3.32945">
        <ele>172.7</ele>
        <time>2024-05-15T11:02:00.000Z</time>
      </trkpt>
      <trkpt lat="48.15593" lon="3.32951">
        <ele>172.9</ele>
        <time>2024-05-15T11:01:57.000Z</time>
      </trkpt>
      <trkpt lat="48.15594" lon="3.32953">
        <ele>172.9</ele>
        <time>2024-05-15T11:01:56.000Z</time>
      </trkpt>
      <trkpt lat="48.15596" lon="3.32953">
        <ele>172.9</ele>
        <time>2024-05-15T11:01:55.000Z</time>
      </trkpt>
      <trkpt lat="48.156" lon="3.32951">
        <ele>172.6</ele>
        <time>2024-05-15T11:01:53.000Z</time>
      </trkpt>
      <trkpt lat="48.15602" lon="3.3295">
        <ele>172.5</ele>
        <time>2024-05-15T11:01:52.000Z</time>
      </trkpt>
      <trkpt lat="48.15607" lon="3.32948">
        <ele>172.3</ele>
        <time>2024-05-15T11:01:49.000Z</time>
      </trkpt>
      <trkpt lat="48.15608" lon="3.32946">
        <ele>172.2</ele>
        <time>2024-05-15T11:01:48.000Z</time>
      </trkpt>
      <trkpt lat="48.15609" lon="3.32945">
        <ele>172.1</ele>
        <time>2024-05-15T11:01:47.000Z</time>
      </trkpt>
      <trkpt lat="48.15612" lon="3.32942">
        <ele>171.9</ele>
        <time>2024-05-15T11:01:41.000Z</time>
      </trkpt>
      <trkpt lat="48.15612" lon="3.32942">
        <ele>171.9</ele>
        <time>2024-05-15T11:01:37.000Z</time>
      </trkpt>
      <trkpt lat="48.15613" lon="3.32942">
        <ele>171.9</ele>
        <time>2024-05-15T11:01:35.000Z</time>
      </trkpt>
      <trkpt lat="48.15613" lon="3.32942">
        <ele>171.9</ele>
        <time>2024-05-15T11:01:34.000Z</time>
      </trkpt>
      <trkpt lat="48.15614" lon="3.32942">
        <ele>171.9</ele>
        <time>2024-05-15T11:01:33.000Z</time>
      </trkpt>
      <trkpt lat="48.15625" lon="3.32945">
        <ele>172</ele>
        <time>2024-05-15T11:01:29.000Z</time>
      </trkpt>
      <trkpt lat="48.15626" lon="3.32948">
        <ele>172.1</ele>
        <time>2024-05-15T11:01:28.000Z</time>
      </trkpt>
      <trkpt lat="48.15627" lon="3.32947">
        <ele>172</ele>
        <time>2024-05-15T11:01:27.000Z</time>
      </trkpt>
      <trkpt lat="48.1563" lon="3.32947">
        <ele>172</ele>
        <time>2024-05-15T11:01:26.000Z</time>
      </trkpt>
      <trkpt lat="48.15635" lon="3.32952">
        <ele>172</ele>
        <time>2024-05-15T11:01:23.000Z</time>
      </trkpt>
      <trkpt lat="48.15636" lon="3.32953">
        <ele>172</ele>
        <time>2024-05-15T11:01:22.000Z</time>
      </trkpt>
      <trkpt lat="48.15636" lon="3.32953">
        <ele>172</ele>
        <time>2024-05-15T11:01:21.000Z</time>
      </trkpt>
      <trkpt lat="48.15637" lon="3.32954">
        <ele>172</ele>
        <time>2024-05-15T11:01:20.000Z</time>
      </trkpt>
      <trkpt lat="48.15643" lon="3.32959">
        <ele>171.9</ele>
        <time>2024-05-15T11:01:16.000Z</time>
      </trkpt>
      <trkpt lat="48.15647" lon="3.32962">
        <ele>171.9</ele>
        <time>2024-05-15T11:01:14.000Z</time>
      </trkpt>
      <trkpt lat="48.15648" lon="3.32964">
        <ele>171.9</ele>
        <time>2024-05-15T11:01:13.000Z</time>
      </trkpt>
      <trkpt lat="48.15649" lon="3.32965">
        <ele>171.9</ele>
        <time>2024-05-15T11:01:12.000Z</time>
      </trkpt>
      <trkpt lat="48.1565" lon="3.32966">
        <ele>171.9</ele>
        <time>2024-05-15T11:01:11.000Z</time>
      </trkpt>
      <trkpt lat="48.15651" lon="3.32968">
        <ele>171.9</ele>
        <time>2024-05-15T11:01:10.000Z</time>
      </trkpt>
      <trkpt lat="48.15652" lon="3.3297">
        <ele>172</ele>
        <time>2024-05-15T11:01:09.000Z</time>
      </trkpt>
      <trkpt lat="48.15655" lon="3.32975">
        <ele>172</ele>
        <time>2024-05-15T11:01:06.000Z</time>
      </trkpt>
      <trkpt lat="48.15656" lon="3.32978">
        <ele>172.1</ele>
        <time>2024-05-15T11:01:05.000Z</time>
      </trkpt>
      <trkpt lat="48.15656" lon="3.32979">
        <ele>172.1</ele>
        <time>2024-05-15T11:01:04.000Z</time>
      </trkpt>
      <trkpt lat="48.15658" lon="3.32987">
        <ele>172.2</ele>
        <time>2024-05-15T11:00:59.000Z</time>
      </trkpt>
      <trkpt lat="48.15658" lon="3.32989">
        <ele>172.2</ele>
        <time>2024-05-15T11:00:58.000Z</time>
      </trkpt>
      <trkpt lat="48.15658" lon="3.32989">
        <ele>172.2</ele>
        <time>2024-05-15T11:00:57.000Z</time>
      </trkpt>
      <trkpt lat="48.15659" lon="3.32989">
        <ele>172.2</ele>
        <time>2024-05-15T11:00:56.000Z</time>
      </trkpt>
      <trkpt lat="48.15658" lon="3.32992">
        <ele>172.2</ele>
        <time>2024-05-15T11:00:55.000Z</time>
      </trkpt>
      <trkpt lat="48.15659" lon="3.32995">
        <ele>172.2</ele>
        <time>2024-05-15T11:00:53.000Z</time>
      </trkpt>
      <trkpt lat="48.15659" lon="3.32995">
        <ele>172.2</ele>
        <time>2024-05-15T11:00:52.000Z</time>
      </trkpt>
      <trkpt lat="48.15659" lon="3.32996">
        <ele>172.2</ele>
        <time>2024-05-15T11:00:51.000Z</time>
      </trkpt>
      <trkpt lat="48.15659" lon="3.32996">
        <ele>172.2</ele>
        <time>2024-05-15T11:00:50.000Z</time>
      </trkpt>
      <trkpt lat="48.1566" lon="3.33">
        <ele>172.2</ele>
        <time>2024-05-15T11:00:47.000Z</time>
      </trkpt>
      <trkpt lat="48.15661" lon="3.33001">
        <ele>172.2</ele>
        <time>2024-05-15T11:00:46.000Z</time>
      </trkpt>
      <trkpt lat="48.15662" lon="3.33002">
        <ele>172.2</ele>
        <time>2024-05-15T11:00:45.000Z</time>
      </trkpt>
      <trkpt lat="48.15662" lon="3.33003">
        <ele>172.2</ele>
        <time>2024-05-15T11:00:44.000Z</time>
      </trkpt>
      <trkpt lat="48.15663" lon="3.33004">
        <ele>172.1</ele>
        <time>2024-05-15T11:00:43.000Z</time>
      </trkpt>
      <trkpt lat="48.15664" lon="3.33006">
        <ele>172.1</ele>
        <time>2024-05-15T11:00:42.000Z</time>
      </trkpt>
      <trkpt lat="48.15665" lon="3.33007">
        <ele>172.1</ele>
        <time>2024-05-15T11:00:41.000Z</time>
      </trkpt>
      <trkpt lat="48.15666" lon="3.33008">
        <ele>172</ele>
        <time>2024-05-15T11:00:40.000Z</time>
      </trkpt>
      <trkpt lat="48.15668" lon="3.33011">
        <ele>172</ele>
        <time>2024-05-15T11:00:38.000Z</time>
      </trkpt>
      <trkpt lat="48.15668" lon="3.33014">
        <ele>172</ele>
        <time>2024-05-15T11:00:30.000Z</time>
      </trkpt>
      <trkpt lat="48.15668" lon="3.33014">
        <ele>172</ele>
        <time>2024-05-15T11:00:14.000Z</time>
      </trkpt>
      <trkpt lat="48.15668" lon="3.33014">
        <ele>172</ele>
        <time>2024-05-15T11:00:07.000Z</time>
      </trkpt>
      <trkpt lat="48.15668" lon="3.33016">
        <ele>172</ele>
        <time>2024-05-15T11:00:06.000Z</time>
      </trkpt>
      <trkpt lat="48.15668" lon="3.33017">
        <ele>172</ele>
        <time>2024-05-15T11:00:05.000Z</time>
      </trkpt>
      <trkpt lat="48.15668" lon="3.33017">
        <ele>172</ele>
        <time>2024-05-15T11:00:04.000Z</time>
      </trkpt>
      <trkpt lat="48.15668" lon="3.33018">
        <ele>172</ele>
        <time>2024-05-15T11:00:00.000Z</time>
      </trkpt>
      <trkpt lat="48.15668" lon="3.33018">
        <ele>172</ele>
        <time>2024-05-15T10:59:59.000Z</time>
      </trkpt>
      <trkpt lat="48.15668" lon="3.33018">
        <ele>172</ele>
        <time>2024-05-15T10:59:58.000Z</time>
      </trkpt>
      <trkpt lat="48.15667" lon="3.33019">
        <ele>172</ele>
        <time>2024-05-15T10:59:57.000Z</time>
      </trkpt>
      <trkpt lat="48.15666" lon="3.3302">
        <ele>172</ele>
        <time>2024-05-15T10:59:56.000Z</time>
      </trkpt>
      <trkpt lat="48.15665" lon="3.33021">
        <ele>172.1</ele>
        <time>2024-05-15T10:59:55.000Z</time>
      </trkpt>
      <trkpt lat="48.15664" lon="3.33021">
        <ele>172.1</ele>
        <time>2024-05-15T10:59:54.000Z</time>
      </trkpt>
      <trkpt lat="48.15662" lon="3.33021">
        <ele>172.2</ele>
        <time>2024-05-15T10:59:53.000Z</time>
      </trkpt>
      <trkpt lat="48.15651" lon="3.33025">
        <ele>172.6</ele>
        <time>2024-05-15T10:59:49.000Z</time>
      </trkpt>
      <trkpt lat="48.15648" lon="3.33027">
        <ele>172.7</ele>
        <time>2024-05-15T10:59:48.000Z</time>
      </trkpt>
      <trkpt lat="48.15642" lon="3.33031">
        <ele>172.9</ele>
        <time>2024-05-15T10:59:45.000Z</time>
      </trkpt>
      <trkpt lat="48.15641" lon="3.33032">
        <ele>172.9</ele>
        <time>2024-05-15T10:59:44.000Z</time>
      </trkpt>
      <trkpt lat="48.15641" lon="3.33034">
        <ele>172.9</ele>
        <time>2024-05-15T10:59:43.000Z</time>
      </trkpt>
      <trkpt lat="48.15641" lon="3.33035">
        <ele>172.9</ele>
        <time>2024-05-15T10:59:37.000Z</time>
      </trkpt>
      <trkpt lat="48.15641" lon="3.33035">
        <ele>172.9</ele>
        <time>2024-05-15T10:59:34.000Z</time>
      </trkpt>
      <trkpt lat="48.15642" lon="3.33038">
        <ele>172.9</ele>
        <time>2024-05-15T10:59:33.000Z</time>
      </trkpt>
      <trkpt lat="48.15643" lon="3.33041">
        <ele>172.9</ele>
        <time>2024-05-15T10:59:32.000Z</time>
      </trkpt>
      <trkpt lat="48.15644" lon="3.33045">
        <ele>172.9</ele>
        <time>2024-05-15T10:59:31.000Z</time>
      </trkpt>
      <trkpt lat="48.15645" lon="3.3305">
        <ele>173</ele>
        <time>2024-05-15T10:59:30.000Z</time>
      </trkpt>
      <trkpt lat="48.15645" lon="3.33056">
        <ele>173</ele>
        <time>2024-05-15T10:59:29.000Z</time>
      </trkpt>
      <trkpt lat="48.15646" lon="3.33062">
        <ele>172.9</ele>
        <time>2024-05-15T10:59:28.000Z</time>
      </trkpt>
      <trkpt lat="48.15647" lon="3.33068">
        <ele>172.9</ele>
        <time>2024-05-15T10:59:27.000Z</time>
      </trkpt>
      <trkpt lat="48.15647" lon="3.33073">
        <ele>172.8</ele>
        <time>2024-05-15T10:59:26.000Z</time>
      </trkpt>
      <trkpt lat="48.15648" lon="3.33079">
        <ele>172.7</ele>
        <time>2024-05-15T10:59:25.000Z</time>
      </trkpt>
      <trkpt lat="48.15649" lon="3.33084">
        <ele>172.6</ele>
        <time>2024-05-15T10:59:24.000Z</time>
      </trkpt>
      <trkpt lat="48.1565" lon="3.33089">
        <ele>172.5</ele>
        <time>2024-05-15T10:59:23.000Z</time>
      </trkpt>
      <trkpt lat="48.1565" lon="3.33094">
        <ele>172.4</ele>
        <time>2024-05-15T10:59:22.000Z</time>
      </trkpt>
      <trkpt lat="48.15651" lon="3.33099">
        <ele>172.2</ele>
        <time>2024-05-15T10:59:21.000Z</time>
      </trkpt>
      <trkpt lat="48.15652" lon="3.33104">
        <ele>172.1</ele>
        <time>2024-05-15T10:59:20.000Z</time>
      </trkpt>
      <trkpt lat="48.15654" lon="3.33108">
        <ele>172.1</ele>
        <time>2024-05-15T10:59:19.000Z</time>
      </trkpt>
      <trkpt lat="48.15655" lon="3.33113">
        <ele>172</ele>
        <time>2024-05-15T10:59:18.000Z</time>
      </trkpt>
      <trkpt lat="48.15656" lon="3.33118">
        <ele>171.8</ele>
        <time>2024-05-15T10:59:17.000Z</time>
      </trkpt>
      <trkpt lat="48.15657" lon="3.33123">
        <ele>171.7</ele>
        <time>2024-05-15T10:59:16.000Z</time>
      </trkpt>
      <trkpt lat="48.15657" lon="3.33128">
        <ele>171.6</ele>
        <time>2024-05-15T10:59:15.000Z</time>
      </trkpt>
      <trkpt lat="48.15658" lon="3.33132">
        <ele>171.5</ele>
        <time>2024-05-15T10:59:14.000Z</time>
      </trkpt>
      <trkpt lat="48.15659" lon="3.33137">
        <ele>171.3</ele>
        <time>2024-05-15T10:59:13.000Z</time>
      </trkpt>
      <trkpt lat="48.1566" lon="3.33142">
        <ele>171.1</ele>
        <time>2024-05-15T10:59:12.000Z</time>
      </trkpt>
      <trkpt lat="48.15661" lon="3.33146">
        <ele>170.9</ele>
        <time>2024-05-15T10:59:11.000Z</time>
      </trkpt>
      <trkpt lat="48.15664" lon="3.33168">
        <ele>170</ele>
        <time>2024-05-15T10:59:07.000Z</time>
      </trkpt>
      <trkpt lat="48.15668" lon="3.33193">
        <ele>169.1</ele>
        <time>2024-05-15T10:59:02.000Z</time>
      </trkpt>
      <trkpt lat="48.15671" lon="3.33232">
        <ele>167.9</ele>
        <time>2024-05-15T10:58:54.000Z</time>
      </trkpt>
      <trkpt lat="48.15671" lon="3.33236">
        <ele>167.9</ele>
        <time>2024-05-15T10:58:53.000Z</time>
      </trkpt>
      <trkpt lat="48.15671" lon="3.3324">
        <ele>167.9</ele>
        <time>2024-05-15T10:58:52.000Z</time>
      </trkpt>
      <trkpt lat="48.15671" lon="3.33244">
        <ele>167.9</ele>
        <time>2024-05-15T10:58:51.000Z</time>
      </trkpt>
      <trkpt lat="48.15671" lon="3.33253">
        <ele>167.7</ele>
        <time>2024-05-15T10:58:49.000Z</time>
      </trkpt>
      <trkpt lat="48.15676" lon="3.33271">
        <ele>166.9</ele>
        <time>2024-05-15T10:58:44.000Z</time>
      </trkpt>
      <trkpt lat="48.15678" lon="3.33278">
        <ele>166.6</ele>
        <time>2024-05-15T10:58:27.000Z</time>
      </trkpt>
      <trkpt lat="48.15678" lon="3.33278">
        <ele>166.6</ele>
        <time>2024-05-15T10:58:24.000Z</time>
      </trkpt>
      <trkpt lat="48.15678" lon="3.33279">
        <ele>166.5</ele>
        <time>2024-05-15T10:58:23.000Z</time>
      </trkpt>
      <trkpt lat="48.15678" lon="3.33281">
        <ele>166.5</ele>
        <time>2024-05-15T10:58:22.000Z</time>
      </trkpt>
      <trkpt lat="48.15678" lon="3.33285">
        <ele>166.3</ele>
        <time>2024-05-15T10:58:21.000Z</time>
      </trkpt>
      <trkpt lat="48.15679" lon="3.33299">
        <ele>165.8</ele>
        <time>2024-05-15T10:58:17.000Z</time>
      </trkpt>
      <trkpt lat="48.15679" lon="3.33302">
        <ele>165.7</ele>
        <time>2024-05-15T10:58:16.000Z</time>
      </trkpt>
      <trkpt lat="48.15678" lon="3.33306">
        <ele>165.6</ele>
        <time>2024-05-15T10:58:15.000Z</time>
      </trkpt>
      <trkpt lat="48.15677" lon="3.3331">
        <ele>165.5</ele>
        <time>2024-05-15T10:58:14.000Z</time>
      </trkpt>
      <trkpt lat="48.15675" lon="3.33317">
        <ele>165.3</ele>
        <time>2024-05-15T10:58:12.000Z</time>
      </trkpt>
      <trkpt lat="48.15669" lon="3.33334">
        <ele>164.9</ele>
        <time>2024-05-15T10:58:07.000Z</time>
      </trkpt>
      <trkpt lat="48.15669" lon="3.33336">
        <ele>164.9</ele>
        <time>2024-05-15T10:58:06.000Z</time>
      </trkpt>
      <trkpt lat="48.15668" lon="3.33339">
        <ele>164.9</ele>
        <time>2024-05-15T10:58:01.000Z</time>
      </trkpt>
      <trkpt lat="48.15668" lon="3.33339">
        <ele>164.9</ele>
        <time>2024-05-15T10:57:52.000Z</time>
      </trkpt>
      <trkpt lat="48.15668" lon="3.33339">
        <ele>164.9</ele>
        <time>2024-05-15T10:57:48.000Z</time>
      </trkpt>
      <trkpt lat="48.15666" lon="3.33342">
        <ele>165</ele>
        <time>2024-05-15T10:57:46.000Z</time>
      </trkpt>
      <trkpt lat="48.15663" lon="3.33344">
        <ele>165.2</ele>
        <time>2024-05-15T10:57:45.000Z</time>
      </trkpt>
      <trkpt lat="48.1566" lon="3.33346">
        <ele>165.4</ele>
        <time>2024-05-15T10:57:44.000Z</time>
      </trkpt>
      <trkpt lat="48.15659" lon="3.33347">
        <ele>165.4</ele>
        <time>2024-05-15T10:57:43.000Z</time>
      </trkpt>
      <trkpt lat="48.15657" lon="3.33349">
        <ele>165.5</ele>
        <time>2024-05-15T10:57:42.000Z</time>
      </trkpt>
      <trkpt lat="48.15653" lon="3.3336">
        <ele>165.5</ele>
        <time>2024-05-15T10:57:39.000Z</time>
      </trkpt>
      <trkpt lat="48.15653" lon="3.33363">
        <ele>165.5</ele>
        <time>2024-05-15T10:57:38.000Z</time>
      </trkpt>
      <trkpt lat="48.15653" lon="3.33367">
        <ele>165.5</ele>
        <time>2024-05-15T10:57:37.000Z</time>
      </trkpt>
      <trkpt lat="48.15653" lon="3.3337">
        <ele>165.5</ele>
        <time>2024-05-15T10:57:36.000Z</time>
      </trkpt>
      <trkpt lat="48.15653" lon="3.33373">
        <ele>165.5</ele>
        <time>2024-05-15T10:57:35.000Z</time>
      </trkpt>
      <trkpt lat="48.15652" lon="3.33376">
        <ele>165.5</ele>
        <time>2024-05-15T10:57:34.000Z</time>
      </trkpt>
      <trkpt lat="48.15651" lon="3.3338">
        <ele>165.6</ele>
        <time>2024-05-15T10:57:33.000Z</time>
      </trkpt>
      <trkpt lat="48.15651" lon="3.33383">
        <ele>165.6</ele>
        <time>2024-05-15T10:57:32.000Z</time>
      </trkpt>
      <trkpt lat="48.15651" lon="3.33386">
        <ele>165.6</ele>
        <time>2024-05-15T10:57:31.000Z</time>
      </trkpt>
      <trkpt lat="48.15649" lon="3.3339">
        <ele>165.6</ele>
        <time>2024-05-15T10:57:30.000Z</time>
      </trkpt>
      <trkpt lat="48.15647" lon="3.33393">
        <ele>165.7</ele>
        <time>2024-05-15T10:57:29.000Z</time>
      </trkpt>
      <trkpt lat="48.15644" lon="3.33396">
        <ele>165.8</ele>
        <time>2024-05-15T10:57:28.000Z</time>
      </trkpt>
      <trkpt lat="48.15642" lon="3.33398">
        <ele>165.9</ele>
        <time>2024-05-15T10:57:27.000Z</time>
      </trkpt>
      <trkpt lat="48.1564" lon="3.33403">
        <ele>166</ele>
        <time>2024-05-15T10:57:26.000Z</time>
      </trkpt>
      <trkpt lat="48.15638" lon="3.33407">
        <ele>166</ele>
        <time>2024-05-15T10:57:25.000Z</time>
      </trkpt>
      <trkpt lat="48.15634" lon="3.33416">
        <ele>166.2</ele>
        <time>2024-05-15T10:57:24.000Z</time>
      </trkpt>
      <trkpt lat="48.15628" lon="3.33432">
        <ele>166.4</ele>
        <time>2024-05-15T10:57:22.000Z</time>
      </trkpt>
      <trkpt lat="48.15623" lon="3.33444">
        <ele>166.6</ele>
        <time>2024-05-15T10:57:20.000Z</time>
      </trkpt>
      <trkpt lat="48.15611" lon="3.33489">
        <ele>167</ele>
        <time>2024-05-15T10:57:12.000Z</time>
      </trkpt>
      <trkpt lat="48.15609" lon="3.33497">
        <ele>167.1</ele>
        <time>2024-05-15T10:57:10.000Z</time>
      </trkpt>
      <trkpt lat="48.15608" lon="3.33501">
        <ele>167.1</ele>
        <time>2024-05-15T10:57:09.000Z</time>
      </trkpt>
      <trkpt lat="48.15607" lon="3.33506">
        <ele>167.1</ele>
        <time>2024-05-15T10:57:07.000Z</time>
      </trkpt>
      <trkpt lat="48.15606" lon="3.33509">
        <ele>167.2</ele>
        <time>2024-05-15T10:57:06.000Z</time>
      </trkpt>
      <trkpt lat="48.15606" lon="3.33511">
        <ele>167.2</ele>
        <time>2024-05-15T10:57:05.000Z</time>
      </trkpt>
      <trkpt lat="48.15605" lon="3.33511">
        <ele>167.2</ele>
        <time>2024-05-15T10:57:02.000Z</time>
      </trkpt>
      <trkpt lat="48.15605" lon="3.33513">
        <ele>167.2</ele>
        <time>2024-05-15T10:56:56.000Z</time>
      </trkpt>
      <trkpt lat="48.15605" lon="3.33514">
        <ele>167.2</ele>
        <time>2024-05-15T10:56:55.000Z</time>
      </trkpt>
      <trkpt lat="48.15603" lon="3.3352">
        <ele>167.3</ele>
        <time>2024-05-15T10:56:53.000Z</time>
      </trkpt>
      <trkpt lat="48.15599" lon="3.33532">
        <ele>167.4</ele>
        <time>2024-05-15T10:56:50.000Z</time>
      </trkpt>
      <trkpt lat="48.15597" lon="3.33537">
        <ele>167.5</ele>
        <time>2024-05-15T10:56:48.000Z</time>
      </trkpt>
      <trkpt lat="48.15596" lon="3.33539">
        <ele>167.5</ele>
        <time>2024-05-15T10:56:45.000Z</time>
      </trkpt>
      <trkpt lat="48.15596" lon="3.33539">
        <ele>167.5</ele>
        <time>2024-05-15T10:56:43.000Z</time>
      </trkpt>
      <trkpt lat="48.15596" lon="3.33539">
        <ele>167.5</ele>
        <time>2024-05-15T10:56:41.000Z</time>
      </trkpt>
      <trkpt lat="48.15596" lon="3.33539">
        <ele>167.5</ele>
        <time>2024-05-15T10:56:40.000Z</time>
      </trkpt>
      <trkpt lat="48.15593" lon="3.33539">
        <ele>167.7</ele>
        <time>2024-05-15T10:56:39.000Z</time>
      </trkpt>
      <trkpt lat="48.15591" lon="3.33541">
        <ele>167.7</ele>
        <time>2024-05-15T10:56:38.000Z</time>
      </trkpt>
      <trkpt lat="48.15588" lon="3.33539">
        <ele>167.8</ele>
        <time>2024-05-15T10:56:37.000Z</time>
      </trkpt>
      <trkpt lat="48.15585" lon="3.33537">
        <ele>167.9</ele>
        <time>2024-05-15T10:56:36.000Z</time>
      </trkpt>
      <trkpt lat="48.15581" lon="3.33534">
        <ele>168.1</ele>
        <time>2024-05-15T10:56:35.000Z</time>
      </trkpt>
      <trkpt lat="48.15577" lon="3.3353">
        <ele>168.2</ele>
        <time>2024-05-15T10:56:34.000Z</time>
      </trkpt>
      <trkpt lat="48.15564" lon="3.33524">
        <ele>168.8</ele>
        <time>2024-05-15T10:56:31.000Z</time>
      </trkpt>
      <trkpt lat="48.15559" lon="3.33523">
        <ele>169</ele>
        <time>2024-05-15T10:56:30.000Z</time>
      </trkpt>
      <trkpt lat="48.1555" lon="3.33516">
        <ele>169.7</ele>
        <time>2024-05-15T10:56:29.000Z</time>
      </trkpt>
      <trkpt lat="48.15531" lon="3.33497">
        <ele>170.9</ele>
        <time>2024-05-15T10:56:26.000Z</time>
      </trkpt>
      <trkpt lat="48.15526" lon="3.33494">
        <ele>171.1</ele>
        <time>2024-05-15T10:56:25.000Z</time>
      </trkpt>
      <trkpt lat="48.15519" lon="3.33489">
        <ele>171.3</ele>
        <time>2024-05-15T10:56:24.000Z</time>
      </trkpt>
      <trkpt lat="48.15514" lon="3.33488">
        <ele>171.5</ele>
        <time>2024-05-15T10:56:23.000Z</time>
      </trkpt>
      <trkpt lat="48.15503" lon="3.33483">
        <ele>171.9</ele>
        <time>2024-05-15T10:56:21.000Z</time>
      </trkpt>
      <trkpt lat="48.15478" lon="3.33472">
        <ele>172.8</ele>
        <time>2024-05-15T10:56:16.000Z</time>
      </trkpt>
      <trkpt lat="48.15474" lon="3.33471">
        <ele>172.9</ele>
        <time>2024-05-15T10:56:15.000Z</time>
      </trkpt>
      <trkpt lat="48.1547" lon="3.33469">
        <ele>173.2</ele>
        <time>2024-05-15T10:56:14.000Z</time>
      </trkpt>
      <trkpt lat="48.15457" lon="3.33465">
        <ele>174.1</ele>
        <time>2024-05-15T10:56:11.000Z</time>
      </trkpt>
      <trkpt lat="48.15444" lon="3.3346">
        <ele>175</ele>
        <time>2024-05-15T10:56:08.000Z</time>
      </trkpt>
      <trkpt lat="48.15442" lon="3.33459">
        <ele>175.1</ele>
        <time>2024-05-15T10:56:07.000Z</time>
      </trkpt>
      <trkpt lat="48.15439" lon="3.33458">
        <ele>175.2</ele>
        <time>2024-05-15T10:56:06.000Z</time>
      </trkpt>
      <trkpt lat="48.15436" lon="3.33457">
        <ele>175.3</ele>
        <time>2024-05-15T10:56:05.000Z</time>
      </trkpt>
      <trkpt lat="48.15435" lon="3.33458">
        <ele>175.3</ele>
        <time>2024-05-15T10:56:04.000Z</time>
      </trkpt>
      <trkpt lat="48.15433" lon="3.33458">
        <ele>175.4</ele>
        <time>2024-05-15T10:56:03.000Z</time>
      </trkpt>
      <trkpt lat="48.15431" lon="3.3346">
        <ele>175.5</ele>
        <time>2024-05-15T10:56:02.000Z</time>
      </trkpt>
      <trkpt lat="48.15429" lon="3.33462">
        <ele>175.6</ele>
        <time>2024-05-15T10:56:01.000Z</time>
      </trkpt>
      <trkpt lat="48.15419" lon="3.3348">
        <ele>175.9</ele>
        <time>2024-05-15T10:55:56.000Z</time>
      </trkpt>
      <trkpt lat="48.15416" lon="3.33497">
        <ele>176</ele>
        <time>2024-05-15T10:55:51.000Z</time>
      </trkpt>
      <trkpt lat="48.15416" lon="3.335">
        <ele>176</ele>
        <time>2024-05-15T10:55:50.000Z</time>
      </trkpt>
      <trkpt lat="48.15413" lon="3.33509">
        <ele>176.1</ele>
        <time>2024-05-15T10:55:41.000Z</time>
      </trkpt>
      <trkpt lat="48.15413" lon="3.33509">
        <ele>176.1</ele>
        <time>2024-05-15T10:55:39.000Z</time>
      </trkpt>
      <trkpt lat="48.15412" lon="3.33511">
        <ele>176.1</ele>
        <time>2024-05-15T10:55:37.000Z</time>
      </trkpt>
      <trkpt lat="48.15411" lon="3.33514">
        <ele>176.1</ele>
        <time>2024-05-15T10:55:35.000Z</time>
      </trkpt>
      <trkpt lat="48.15411" lon="3.33516">
        <ele>176.1</ele>
        <time>2024-05-15T10:55:34.000Z</time>
      </trkpt>
      <trkpt lat="48.15411" lon="3.33517">
        <ele>176.1</ele>
        <time>2024-05-15T10:55:33.000Z</time>
      </trkpt>
      <trkpt lat="48.1541" lon="3.33521">
        <ele>176.1</ele>
        <time>2024-05-15T10:55:29.000Z</time>
      </trkpt>
      <trkpt lat="48.1541" lon="3.33521">
        <ele>176.1</ele>
        <time>2024-05-15T10:55:28.000Z</time>
      </trkpt>
      <trkpt lat="48.1541" lon="3.33521">
        <ele>176.1</ele>
        <time>2024-05-15T10:55:27.000Z</time>
      </trkpt>
      <trkpt lat="48.1541" lon="3.33522">
        <ele>176</ele>
        <time>2024-05-15T10:55:26.000Z</time>
      </trkpt>
      <trkpt lat="48.15409" lon="3.33524">
        <ele>176</ele>
        <time>2024-05-15T10:55:25.000Z</time>
      </trkpt>
      <trkpt lat="48.15408" lon="3.33527">
        <ele>176</ele>
        <time>2024-05-15T10:55:24.000Z</time>
      </trkpt>
      <trkpt lat="48.15408" lon="3.3353">
        <ele>176</ele>
        <time>2024-05-15T10:55:23.000Z</time>
      </trkpt>
      <trkpt lat="48.15406" lon="3.33532">
        <ele>176</ele>
        <time>2024-05-15T10:55:22.000Z</time>
      </trkpt>
      <trkpt lat="48.15405" lon="3.33535">
        <ele>176</ele>
        <time>2024-05-15T10:55:21.000Z</time>
      </trkpt>
      <trkpt lat="48.15397" lon="3.33544">
        <ele>176</ele>
        <time>2024-05-15T10:55:18.000Z</time>
      </trkpt>
      <trkpt lat="48.15391" lon="3.33552">
        <ele>176</ele>
        <time>2024-05-15T10:55:16.000Z</time>
      </trkpt>
      <trkpt lat="48.15388" lon="3.33556">
        <ele>176</ele>
        <time>2024-05-15T10:55:15.000Z</time>
      </trkpt>
      <trkpt lat="48.15386" lon="3.3356">
        <ele>176.1</ele>
        <time>2024-05-15T10:55:14.000Z</time>
      </trkpt>
      <trkpt lat="48.15382" lon="3.33568">
        <ele>176.1</ele>
        <time>2024-05-15T10:55:12.000Z</time>
      </trkpt>
      <trkpt lat="48.1537" lon="3.33596">
        <ele>175.9</ele>
        <time>2024-05-15T10:55:06.000Z</time>
      </trkpt>
      <trkpt lat="48.15363" lon="3.33607">
        <ele>175.9</ele>
        <time>2024-05-15T10:55:03.000Z</time>
      </trkpt>
      <trkpt lat="48.15362" lon="3.33611">
        <ele>176</ele>
        <time>2024-05-15T10:55:02.000Z</time>
      </trkpt>
      <trkpt lat="48.15359" lon="3.33614">
        <ele>176</ele>
        <time>2024-05-15T10:55:01.000Z</time>
      </trkpt>
      <trkpt lat="48.15357" lon="3.33619">
        <ele>176</ele>
        <time>2024-05-15T10:55:00.000Z</time>
      </trkpt>
      <trkpt lat="48.15354" lon="3.33631">
        <ele>176</ele>
        <time>2024-05-15T10:54:58.000Z</time>
      </trkpt>
      <trkpt lat="48.15354" lon="3.33634">
        <ele>176</ele>
        <time>2024-05-15T10:54:57.000Z</time>
      </trkpt>
      <trkpt lat="48.15352" lon="3.33638">
        <ele>176</ele>
        <time>2024-05-15T10:54:56.000Z</time>
      </trkpt>
      <trkpt lat="48.1535" lon="3.33639">
        <ele>176</ele>
        <time>2024-05-15T10:54:55.000Z</time>
      </trkpt>
      <trkpt lat="48.15349" lon="3.33638">
        <ele>176</ele>
        <time>2024-05-15T10:54:54.000Z</time>
      </trkpt>
      <trkpt lat="48.15347" lon="3.33639">
        <ele>176</ele>
        <time>2024-05-15T10:54:53.000Z</time>
      </trkpt>
      <trkpt lat="48.15345" lon="3.3364">
        <ele>176</ele>
        <time>2024-05-15T10:54:52.000Z</time>
      </trkpt>
      <trkpt lat="48.15344" lon="3.33644">
        <ele>175.9</ele>
        <time>2024-05-15T10:54:51.000Z</time>
      </trkpt>
      <trkpt lat="48.15339" lon="3.33652">
        <ele>175.9</ele>
        <time>2024-05-15T10:54:49.000Z</time>
      </trkpt>
      <trkpt lat="48.15333" lon="3.33661">
        <ele>176</ele>
        <time>2024-05-15T10:54:47.000Z</time>
      </trkpt>
      <trkpt lat="48.15331" lon="3.33666">
        <ele>176</ele>
        <time>2024-05-15T10:54:46.000Z</time>
      </trkpt>
      <trkpt lat="48.15329" lon="3.3367">
        <ele>175.9</ele>
        <time>2024-05-15T10:54:45.000Z</time>
      </trkpt>
      <trkpt lat="48.15327" lon="3.33675">
        <ele>175.7</ele>
        <time>2024-05-15T10:54:44.000Z</time>
      </trkpt>
      <trkpt lat="48.15321" lon="3.3369">
        <ele>175.2</ele>
        <time>2024-05-15T10:54:41.000Z</time>
      </trkpt>
      <trkpt lat="48.15311" lon="3.33715">
        <ele>174.1</ele>
        <time>2024-05-15T10:54:36.000Z</time>
      </trkpt>
      <trkpt lat="48.1531" lon="3.33718">
        <ele>174</ele>
        <time>2024-05-15T10:54:35.000Z</time>
      </trkpt>
      <trkpt lat="48.15309" lon="3.33724">
        <ele>173.8</ele>
        <time>2024-05-15T10:54:33.000Z</time>
      </trkpt>
      <trkpt lat="48.15308" lon="3.33726">
        <ele>173.8</ele>
        <time>2024-05-15T10:54:32.000Z</time>
      </trkpt>
      <trkpt lat="48.15307" lon="3.33728">
        <ele>173.8</ele>
        <time>2024-05-15T10:54:31.000Z</time>
      </trkpt>
      <trkpt lat="48.15306" lon="3.33731">
        <ele>173.7</ele>
        <time>2024-05-15T10:54:30.000Z</time>
      </trkpt>
      <trkpt lat="48.15305" lon="3.33732">
        <ele>173.6</ele>
        <time>2024-05-15T10:54:29.000Z</time>
      </trkpt>
      <trkpt lat="48.15303" lon="3.33735">
        <ele>173.5</ele>
        <time>2024-05-15T10:54:23.000Z</time>
      </trkpt>
      <trkpt lat="48.15303" lon="3.33735">
        <ele>173.5</ele>
        <time>2024-05-15T10:54:12.000Z</time>
      </trkpt>
      <trkpt lat="48.15303" lon="3.33735">
        <ele>173.5</ele>
        <time>2024-05-15T10:54:09.000Z</time>
      </trkpt>
      <trkpt lat="48.15303" lon="3.33735">
        <ele>173.5</ele>
        <time>2024-05-15T10:53:53.000Z</time>
      </trkpt>
      <trkpt lat="48.15303" lon="3.33735">
        <ele>173.5</ele>
        <time>2024-05-15T10:53:42.000Z</time>
      </trkpt>
      <trkpt lat="48.15303" lon="3.33735">
        <ele>173.5</ele>
        <time>2024-05-15T10:53:33.000Z</time>
      </trkpt>
      <trkpt lat="48.15303" lon="3.33735">
        <ele>173.5</ele>
        <time>2024-05-15T10:53:21.000Z</time>
      </trkpt>
      <trkpt lat="48.15303" lon="3.33735">
        <ele>173.5</ele>
        <time>2024-05-15T10:53:19.000Z</time>
      </trkpt>
      <trkpt lat="48.15303" lon="3.33735">
        <ele>173.5</ele>
        <time>2024-05-15T10:53:13.000Z</time>
      </trkpt>
      <trkpt lat="48.15303" lon="3.33735">
        <ele>173.5</ele>
        <time>2024-05-15T10:53:11.000Z</time>
      </trkpt>
      <trkpt lat="48.15303" lon="3.33735">
        <ele>173.5</ele>
        <time>2024-05-15T10:53:10.000Z</time>
      </trkpt>
      <trkpt lat="48.15302" lon="3.33735">
        <ele>173.5</ele>
        <time>2024-05-15T10:53:09.000Z</time>
      </trkpt>
      <trkpt lat="48.15299" lon="3.33733">
        <ele>173.6</ele>
        <time>2024-05-15T10:53:08.000Z</time>
      </trkpt>
      <trkpt lat="48.15294" lon="3.33729">
        <ele>173.8</ele>
        <time>2024-05-15T10:53:06.000Z</time>
      </trkpt>
      <trkpt lat="48.15291" lon="3.33726">
        <ele>173.9</ele>
        <time>2024-05-15T10:53:05.000Z</time>
      </trkpt>
      <trkpt lat="48.15288" lon="3.33722">
        <ele>174</ele>
        <time>2024-05-15T10:53:04.000Z</time>
      </trkpt>
      <trkpt lat="48.15272" lon="3.337">
        <ele>174.8</ele>
        <time>2024-05-15T10:52:59.000Z</time>
      </trkpt>
      <trkpt lat="48.15265" lon="3.33689">
        <ele>175.2</ele>
        <time>2024-05-15T10:52:57.000Z</time>
      </trkpt>
      <trkpt lat="48.15262" lon="3.33684">
        <ele>175.4</ele>
        <time>2024-05-15T10:52:56.000Z</time>
      </trkpt>
      <trkpt lat="48.15256" lon="3.33678">
        <ele>175.6</ele>
        <time>2024-05-15T10:52:54.000Z</time>
      </trkpt>
      <trkpt lat="48.15253" lon="3.33675">
        <ele>175.7</ele>
        <time>2024-05-15T10:52:53.000Z</time>
      </trkpt>
      <trkpt lat="48.15246" lon="3.33667">
        <ele>175.8</ele>
        <time>2024-05-15T10:52:51.000Z</time>
      </trkpt>
      <trkpt lat="48.15244" lon="3.33664">
        <ele>175.8</ele>
        <time>2024-05-15T10:52:50.000Z</time>
      </trkpt>
      <trkpt lat="48.15243" lon="3.33662">
        <ele>175.8</ele>
        <time>2024-05-15T10:52:49.000Z</time>
      </trkpt>
      <trkpt lat="48.15241" lon="3.33658">
        <ele>175.8</ele>
        <time>2024-05-15T10:52:48.000Z</time>
      </trkpt>
      <trkpt lat="48.15239" lon="3.33654">
        <ele>175.8</ele>
        <time>2024-05-15T10:52:47.000Z</time>
      </trkpt>
      <trkpt lat="48.15236" lon="3.33651">
        <ele>175.8</ele>
        <time>2024-05-15T10:52:46.000Z</time>
      </trkpt>
      <trkpt lat="48.15234" lon="3.33648">
        <ele>175.8</ele>
        <time>2024-05-15T10:52:45.000Z</time>
      </trkpt>
      <trkpt lat="48.15231" lon="3.33643">
        <ele>175.9</ele>
        <time>2024-05-15T10:52:44.000Z</time>
      </trkpt>
      <trkpt lat="48.15228" lon="3.33638">
        <ele>176</ele>
        <time>2024-05-15T10:52:43.000Z</time>
      </trkpt>
      <trkpt lat="48.15221" lon="3.33626">
        <ele>176</ele>
        <time>2024-05-15T10:52:41.000Z</time>
      </trkpt>
      <trkpt lat="48.15217" lon="3.33617">
        <ele>176</ele>
        <time>2024-05-15T10:52:39.000Z</time>
      </trkpt>
      <trkpt lat="48.15203" lon="3.33596">
        <ele>176.5</ele>
        <time>2024-05-15T10:52:34.000Z</time>
      </trkpt>
      <trkpt lat="48.15189" lon="3.33571">
        <ele>176.8</ele>
        <time>2024-05-15T10:52:27.000Z</time>
      </trkpt>
      <trkpt lat="48.15184" lon="3.33564">
        <ele>176.6</ele>
        <time>2024-05-15T10:52:25.000Z</time>
      </trkpt>
      <trkpt lat="48.15182" lon="3.33562">
        <ele>176.6</ele>
        <time>2024-05-15T10:52:24.000Z</time>
      </trkpt>
      <trkpt lat="48.15177" lon="3.33555">
        <ele>176.4</ele>
        <time>2024-05-15T10:52:21.000Z</time>
      </trkpt>
      <trkpt lat="48.15173" lon="3.33548">
        <ele>176.4</ele>
        <time>2024-05-15T10:52:19.000Z</time>
      </trkpt>
      <trkpt lat="48.15172" lon="3.33546">
        <ele>176.5</ele>
        <time>2024-05-15T10:52:18.000Z</time>
      </trkpt>
      <trkpt lat="48.1517" lon="3.33543">
        <ele>176.5</ele>
        <time>2024-05-15T10:52:17.000Z</time>
      </trkpt>
      <trkpt lat="48.15168" lon="3.33538">
        <ele>176.6</ele>
        <time>2024-05-15T10:52:16.000Z</time>
      </trkpt>
      <trkpt lat="48.15166" lon="3.33534">
        <ele>176.8</ele>
        <time>2024-05-15T10:52:15.000Z</time>
      </trkpt>
      <trkpt lat="48.15164" lon="3.33531">
        <ele>176.8</ele>
        <time>2024-05-15T10:52:14.000Z</time>
      </trkpt>
      <trkpt lat="48.15158" lon="3.33515">
        <ele>176.8</ele>
        <time>2024-05-15T10:52:11.000Z</time>
      </trkpt>
      <trkpt lat="48.15154" lon="3.33512">
        <ele>176.8</ele>
        <time>2024-05-15T10:52:10.000Z</time>
      </trkpt>
      <trkpt lat="48.15151" lon="3.33507">
        <ele>176.9</ele>
        <time>2024-05-15T10:52:09.000Z</time>
      </trkpt>
      <trkpt lat="48.15149" lon="3.33503">
        <ele>176.9</ele>
        <time>2024-05-15T10:52:08.000Z</time>
      </trkpt>
      <trkpt lat="48.15145" lon="3.33497">
        <ele>177</ele>
        <time>2024-05-15T10:52:07.000Z</time>
      </trkpt>
      <trkpt lat="48.15139" lon="3.33487">
        <ele>177</ele>
        <time>2024-05-15T10:52:05.000Z</time>
      </trkpt>
      <trkpt lat="48.15137" lon="3.33482">
        <ele>177</ele>
        <time>2024-05-15T10:52:04.000Z</time>
      </trkpt>
      <trkpt lat="48.15134" lon="3.33472">
        <ele>177</ele>
        <time>2024-05-15T10:52:02.000Z</time>
      </trkpt>
      <trkpt lat="48.15121" lon="3.33453">
        <ele>177</ele>
        <time>2024-05-15T10:51:59.000Z</time>
      </trkpt>
      <trkpt lat="48.15105" lon="3.3342">
        <ele>177</ele>
        <time>2024-05-15T10:51:53.000Z</time>
      </trkpt>
      <trkpt lat="48.15099" lon="3.33398">
        <ele>177</ele>
        <time>2024-05-15T10:51:48.000Z</time>
      </trkpt>
      <trkpt lat="48.15093" lon="3.33386">
        <ele>177</ele>
        <time>2024-05-15T10:51:45.000Z</time>
      </trkpt>
      <trkpt lat="48.15092" lon="3.33383">
        <ele>177</ele>
        <time>2024-05-15T10:51:44.000Z</time>
      </trkpt>
      <trkpt lat="48.15092" lon="3.33379">
        <ele>177</ele>
        <time>2024-05-15T10:51:43.000Z</time>
      </trkpt>
      <trkpt lat="48.15091" lon="3.33377">
        <ele>177</ele>
        <time>2024-05-15T10:51:42.000Z</time>
      </trkpt>
      <trkpt lat="48.1509" lon="3.33373">
        <ele>177</ele>
        <time>2024-05-15T10:51:41.000Z</time>
      </trkpt>
      <trkpt lat="48.1509" lon="3.33369">
        <ele>177</ele>
        <time>2024-05-15T10:51:40.000Z</time>
      </trkpt>
      <trkpt lat="48.1509" lon="3.33366">
        <ele>177</ele>
        <time>2024-05-15T10:51:39.000Z</time>
      </trkpt>
      <trkpt lat="48.15091" lon="3.33363">
        <ele>177</ele>
        <time>2024-05-15T10:51:38.000Z</time>
      </trkpt>
      <trkpt lat="48.15092" lon="3.3336">
        <ele>177</ele>
        <time>2024-05-15T10:51:37.000Z</time>
      </trkpt>
      <trkpt lat="48.151" lon="3.33354">
        <ele>177</ele>
        <time>2024-05-15T10:51:34.000Z</time>
      </trkpt>
      <trkpt lat="48.15103" lon="3.33352">
        <ele>177</ele>
        <time>2024-05-15T10:51:33.000Z</time>
      </trkpt>
      <trkpt lat="48.15105" lon="3.33349">
        <ele>177</ele>
        <time>2024-05-15T10:51:32.000Z</time>
      </trkpt>
      <trkpt lat="48.15107" lon="3.33347">
        <ele>177</ele>
        <time>2024-05-15T10:51:31.000Z</time>
      </trkpt>
      <trkpt lat="48.15109" lon="3.33346">
        <ele>177</ele>
        <time>2024-05-15T10:51:30.000Z</time>
      </trkpt>
      <trkpt lat="48.15111" lon="3.33344">
        <ele>177</ele>
        <time>2024-05-15T10:51:29.000Z</time>
      </trkpt>
      <trkpt lat="48.15112" lon="3.3334">
        <ele>177</ele>
        <time>2024-05-15T10:51:27.000Z</time>
      </trkpt>
      <trkpt lat="48.15112" lon="3.33338">
        <ele>177</ele>
        <time>2024-05-15T10:51:15.000Z</time>
      </trkpt>
      <trkpt lat="48.15112" lon="3.33338">
        <ele>177</ele>
        <time>2024-05-15T10:50:49.000Z</time>
      </trkpt>
      <trkpt lat="48.15112" lon="3.33338">
        <ele>177</ele>
        <time>2024-05-15T10:50:48.000Z</time>
      </trkpt>
      <trkpt lat="48.15112" lon="3.33338">
        <ele>177</ele>
        <time>2024-05-15T10:50:44.000Z</time>
      </trkpt>
      <trkpt lat="48.15112" lon="3.33337">
        <ele>177</ele>
        <time>2024-05-15T10:50:43.000Z</time>
      </trkpt>
      <trkpt lat="48.15111" lon="3.33335">
        <ele>177</ele>
        <time>2024-05-15T10:50:42.000Z</time>
      </trkpt>
      <trkpt lat="48.15111" lon="3.33332">
        <ele>177</ele>
        <time>2024-05-15T10:50:41.000Z</time>
      </trkpt>
      <trkpt lat="48.15111" lon="3.3333">
        <ele>177</ele>
        <time>2024-05-15T10:50:40.000Z</time>
      </trkpt>
      <trkpt lat="48.15111" lon="3.33326">
        <ele>177</ele>
        <time>2024-05-15T10:50:39.000Z</time>
      </trkpt>
      <trkpt lat="48.15111" lon="3.33322">
        <ele>177</ele>
        <time>2024-05-15T10:50:38.000Z</time>
      </trkpt>
      <trkpt lat="48.15112" lon="3.33319">
        <ele>177</ele>
        <time>2024-05-15T10:50:37.000Z</time>
      </trkpt>
      <trkpt lat="48.15112" lon="3.33315">
        <ele>177</ele>
        <time>2024-05-15T10:50:36.000Z</time>
      </trkpt>
      <trkpt lat="48.15113" lon="3.33311">
        <ele>177</ele>
        <time>2024-05-15T10:50:35.000Z</time>
      </trkpt>
      <trkpt lat="48.15114" lon="3.33306">
        <ele>177</ele>
        <time>2024-05-15T10:50:34.000Z</time>
      </trkpt>
      <trkpt lat="48.15115" lon="3.33302">
        <ele>176.9</ele>
        <time>2024-05-15T10:50:33.000Z</time>
      </trkpt>
      <trkpt lat="48.15117" lon="3.33299">
        <ele>176.8</ele>
        <time>2024-05-15T10:50:32.000Z</time>
      </trkpt>
      <trkpt lat="48.1512" lon="3.33295">
        <ele>176.7</ele>
        <time>2024-05-15T10:50:31.000Z</time>
      </trkpt>
      <trkpt lat="48.15122" lon="3.33292">
        <ele>176.7</ele>
        <time>2024-05-15T10:50:30.000Z</time>
      </trkpt>
      <trkpt lat="48.15122" lon="3.33288">
        <ele>176.6</ele>
        <time>2024-05-15T10:50:29.000Z</time>
      </trkpt>
      <trkpt lat="48.15122" lon="3.33284">
        <ele>176.5</ele>
        <time>2024-05-15T10:50:28.000Z</time>
      </trkpt>
      <trkpt lat="48.15122" lon="3.3328">
        <ele>176.4</ele>
        <time>2024-05-15T10:50:27.000Z</time>
      </trkpt>
      <trkpt lat="48.1512" lon="3.33275">
        <ele>176.3</ele>
        <time>2024-05-15T10:50:26.000Z</time>
      </trkpt>
      <trkpt lat="48.15119" lon="3.33269">
        <ele>176.2</ele>
        <time>2024-05-15T10:50:25.000Z</time>
      </trkpt>
      <trkpt lat="48.15119" lon="3.33267">
        <ele>176.2</ele>
        <time>2024-05-15T10:50:24.000Z</time>
      </trkpt>
      <trkpt lat="48.1512" lon="3.33262">
        <ele>176.1</ele>
        <time>2024-05-15T10:50:23.000Z</time>
      </trkpt>
      <trkpt lat="48.15119" lon="3.33256">
        <ele>176.1</ele>
        <time>2024-05-15T10:50:22.000Z</time>
      </trkpt>
      <trkpt lat="48.15119" lon="3.3325">
        <ele>176</ele>
        <time>2024-05-15T10:50:21.000Z</time>
      </trkpt>
      <trkpt lat="48.15117" lon="3.33243">
        <ele>175.8</ele>
        <time>2024-05-15T10:50:20.000Z</time>
      </trkpt>
      <trkpt lat="48.15114" lon="3.33236">
        <ele>175.5</ele>
        <time>2024-05-15T10:50:19.000Z</time>
      </trkpt>
      <trkpt lat="48.15115" lon="3.33234">
        <ele>175.5</ele>
        <time>2024-05-15T10:50:18.000Z</time>
      </trkpt>
      <trkpt lat="48.15117" lon="3.33227">
        <ele>175.3</ele>
        <time>2024-05-15T10:50:16.000Z</time>
      </trkpt>
      <trkpt lat="48.15118" lon="3.33223">
        <ele>175.3</ele>
        <time>2024-05-15T10:50:15.000Z</time>
      </trkpt>
      <trkpt lat="48.15119" lon="3.33219">
        <ele>175.2</ele>
        <time>2024-05-15T10:50:14.000Z</time>
      </trkpt>
      <trkpt lat="48.15118" lon="3.33215">
        <ele>175</ele>
        <time>2024-05-15T10:50:13.000Z</time>
      </trkpt>
      <trkpt lat="48.1511" lon="3.33189">
        <ele>173.6</ele>
        <time>2024-05-15T10:50:08.000Z</time>
      </trkpt>
      <trkpt lat="48.15108" lon="3.33186">
        <ele>173.3</ele>
        <time>2024-05-15T10:50:07.000Z</time>
      </trkpt>
      <trkpt lat="48.15107" lon="3.33183">
        <ele>173</ele>
        <time>2024-05-15T10:50:06.000Z</time>
      </trkpt>
      <trkpt lat="48.15107" lon="3.3318">
        <ele>172.8</ele>
        <time>2024-05-15T10:50:05.000Z</time>
      </trkpt>
      <trkpt lat="48.15109" lon="3.33177">
        <ele>172.7</ele>
        <time>2024-05-15T10:50:04.000Z</time>
      </trkpt>
      <trkpt lat="48.1511" lon="3.33173">
        <ele>172.4</ele>
        <time>2024-05-15T10:50:03.000Z</time>
      </trkpt>
      <trkpt lat="48.1511" lon="3.33168">
        <ele>172.1</ele>
        <time>2024-05-15T10:50:02.000Z</time>
      </trkpt>
      <trkpt lat="48.1511" lon="3.33164">
        <ele>171.7</ele>
        <time>2024-05-15T10:50:01.000Z</time>
      </trkpt>
      <trkpt lat="48.1511" lon="3.33161">
        <ele>171.4</ele>
        <time>2024-05-15T10:50:00.000Z</time>
      </trkpt>
      <trkpt lat="48.1511" lon="3.33157">
        <ele>170.9</ele>
        <time>2024-05-15T10:49:59.000Z</time>
      </trkpt>
      <trkpt lat="48.15111" lon="3.33155">
        <ele>170.7</ele>
        <time>2024-05-15T10:49:58.000Z</time>
      </trkpt>
      <trkpt lat="48.15112" lon="3.33152">
        <ele>170.5</ele>
        <time>2024-05-15T10:49:57.000Z</time>
      </trkpt>
      <trkpt lat="48.1511" lon="3.33149">
        <ele>170.1</ele>
        <time>2024-05-15T10:49:56.000Z</time>
      </trkpt>
      <trkpt lat="48.1511" lon="3.33146">
        <ele>169.8</ele>
        <time>2024-05-15T10:49:55.000Z</time>
      </trkpt>
      <trkpt lat="48.15109" lon="3.33143">
        <ele>169.4</ele>
        <time>2024-05-15T10:49:54.000Z</time>
      </trkpt>
      <trkpt lat="48.15107" lon="3.33138">
        <ele>168.9</ele>
        <time>2024-05-15T10:49:53.000Z</time>
      </trkpt>
      <trkpt lat="48.15106" lon="3.33135">
        <ele>168.7</ele>
        <time>2024-05-15T10:49:52.000Z</time>
      </trkpt>
      <trkpt lat="48.15105" lon="3.33132">
        <ele>168.4</ele>
        <time>2024-05-15T10:49:51.000Z</time>
      </trkpt>
      <trkpt lat="48.15104" lon="3.33131">
        <ele>168.4</ele>
        <time>2024-05-15T10:49:50.000Z</time>
      </trkpt>
      <trkpt lat="48.15104" lon="3.33132">
        <ele>168.4</ele>
        <time>2024-05-15T10:49:49.000Z</time>
      </trkpt>
      <trkpt lat="48.15104" lon="3.33131">
        <ele>168.4</ele>
        <time>2024-05-15T10:49:48.000Z</time>
      </trkpt>
      <trkpt lat="48.15103" lon="3.33128">
        <ele>168.1</ele>
        <time>2024-05-15T10:49:47.000Z</time>
      </trkpt>
      <trkpt lat="48.15101" lon="3.33128">
        <ele>168.1</ele>
        <time>2024-05-15T10:49:46.000Z</time>
      </trkpt>
      <trkpt lat="48.151" lon="3.33129">
        <ele>168.1</ele>
        <time>2024-05-15T10:49:45.000Z</time>
      </trkpt>
      <trkpt lat="48.15098" lon="3.3313">
        <ele>168.2</ele>
        <time>2024-05-15T10:49:44.000Z</time>
      </trkpt>
      <trkpt lat="48.15096" lon="3.33125">
        <ele>167.8</ele>
        <time>2024-05-15T10:47:32.000Z</time>
      </trkpt>
      <trkpt lat="48.15097" lon="3.33118">
        <ele>167.1</ele>
        <time>2024-05-15T10:47:31.000Z</time>
      </trkpt>
      <trkpt lat="48.151" lon="3.33113">
        <ele>166.8</ele>
        <time>2024-05-15T10:47:29.000Z</time>
      </trkpt>
      <trkpt lat="48.15101" lon="3.33111">
        <ele>166.6</ele>
        <time>2024-05-15T10:47:28.000Z</time>
      </trkpt>
      <trkpt lat="48.15103" lon="3.33111">
        <ele>166.7</ele>
        <time>2024-05-15T10:47:27.000Z</time>
      </trkpt>
      <trkpt lat="48.15105" lon="3.3311">
        <ele>166.7</ele>
        <time>2024-05-15T10:47:26.000Z</time>
      </trkpt>
      <trkpt lat="48.15106" lon="3.33109">
        <ele>166.6</ele>
        <time>2024-05-15T10:47:25.000Z</time>
      </trkpt>
      <trkpt lat="48.15111" lon="3.331">
        <ele>165.8</ele>
        <time>2024-05-15T10:47:19.000Z</time>
      </trkpt>
      <trkpt lat="48.15112" lon="3.331">
        <ele>165.9</ele>
        <time>2024-05-15T10:47:18.000Z</time>
      </trkpt>
      <trkpt lat="48.15114" lon="3.33101">
        <ele>166.1</ele>
        <time>2024-05-15T10:47:15.000Z</time>
      </trkpt>
      <trkpt lat="48.15115" lon="3.331">
        <ele>166.1</ele>
        <time>2024-05-15T10:47:11.000Z</time>
      </trkpt>
      <trkpt lat="48.15115" lon="3.331">
        <ele>166.1</ele>
        <time>2024-05-15T10:46:55.000Z</time>
      </trkpt>
      <trkpt lat="48.15115" lon="3.33101">
        <ele>166.2</ele>
        <time>2024-05-15T10:46:45.000Z</time>
      </trkpt>
      <trkpt lat="48.15116" lon="3.33102">
        <ele>166.4</ele>
        <time>2024-05-15T10:46:32.000Z</time>
      </trkpt>
      <trkpt lat="48.15117" lon="3.33102">
        <ele>166.4</ele>
        <time>2024-05-15T10:46:23.000Z</time>
      </trkpt>
      <trkpt lat="48.15117" lon="3.33102">
        <ele>166.4</ele>
        <time>2024-05-15T10:46:11.000Z</time>
      </trkpt>
      <trkpt lat="48.15117" lon="3.33102">
        <ele>166.4</ele>
        <time>2024-05-15T10:45:56.000Z</time>
      </trkpt>
      <trkpt lat="48.15117" lon="3.33102">
        <ele>166.4</ele>
        <time>2024-05-15T10:45:55.000Z</time>
      </trkpt>
      <trkpt lat="48.15117" lon="3.33102">
        <ele>166.4</ele>
        <time>2024-05-15T10:45:44.000Z</time>
      </trkpt>
      <trkpt lat="48.15117" lon="3.33102">
        <ele>166.4</ele>
        <time>2024-05-15T10:45:28.000Z</time>
      </trkpt>
      <trkpt lat="48.15117" lon="3.33102">
        <ele>166.4</ele>
        <time>2024-05-15T10:45:11.000Z</time>
      </trkpt>
      <trkpt lat="48.15117" lon="3.33102">
        <ele>166.4</ele>
        <time>2024-05-15T10:44:55.000Z</time>
      </trkpt>
      <trkpt lat="48.15117" lon="3.33102">
        <ele>166.4</ele>
        <time>2024-05-15T10:44:39.000Z</time>
      </trkpt>
      <trkpt lat="48.15117" lon="3.33102">
        <ele>166.4</ele>
        <time>2024-05-15T10:44:38.000Z</time>
      </trkpt>
      <trkpt lat="48.15117" lon="3.33102">
        <ele>166.4</ele>
        <time>2024-05-15T10:44:19.000Z</time>
      </trkpt>
      <trkpt lat="48.15117" lon="3.33102">
        <ele>166.4</ele>
        <time>2024-05-15T10:44:09.000Z</time>
      </trkpt>
      <trkpt lat="48.15117" lon="3.33102">
        <ele>166.4</ele>
        <time>2024-05-15T10:43:55.000Z</time>
      </trkpt>
      <trkpt lat="48.15117" lon="3.33102">
        <ele>166.4</ele>
        <time>2024-05-15T10:43:52.000Z</time>
      </trkpt>
      <trkpt lat="48.15117" lon="3.33103">
        <ele>166.5</ele>
        <time>2024-05-15T10:43:50.000Z</time>
      </trkpt>
      <trkpt lat="48.15117" lon="3.33102">
        <ele>166.4</ele>
        <time>2024-05-15T10:43:49.000Z</time>
      </trkpt>
      <trkpt lat="48.15118" lon="3.33102">
        <ele>166.5</ele>
        <time>2024-05-15T10:43:48.000Z</time>
      </trkpt>
      <trkpt lat="48.15118" lon="3.33101">
        <ele>166.4</ele>
        <time>2024-05-15T10:43:47.000Z</time>
      </trkpt>
      <trkpt lat="48.15119" lon="3.331">
        <ele>166.4</ele>
        <time>2024-05-15T10:43:46.000Z</time>
      </trkpt>
      <trkpt lat="48.15119" lon="3.33099">
        <ele>166.3</ele>
        <time>2024-05-15T10:43:45.000Z</time>
      </trkpt>
      <trkpt lat="48.1512" lon="3.33098">
        <ele>166.2</ele>
        <time>2024-05-15T10:43:44.000Z</time>
      </trkpt>
      <trkpt lat="48.15121" lon="3.33097">
        <ele>166.2</ele>
        <time>2024-05-15T10:43:43.000Z</time>
      </trkpt>
      <trkpt lat="48.15124" lon="3.33096">
        <ele>166.3</ele>
        <time>2024-05-15T10:43:42.000Z</time>
      </trkpt>
      <trkpt lat="48.15127" lon="3.33095">
        <ele>166.4</ele>
        <time>2024-05-15T10:43:41.000Z</time>
      </trkpt>
      <trkpt lat="48.15127" lon="3.33094">
        <ele>166.3</ele>
        <time>2024-05-15T10:43:40.000Z</time>
      </trkpt>
      <trkpt lat="48.15128" lon="3.33093">
        <ele>166.3</ele>
        <time>2024-05-15T10:43:39.000Z</time>
      </trkpt>
      <trkpt lat="48.15133" lon="3.33084">
        <ele>165.6</ele>
        <time>2024-05-15T10:43:35.000Z</time>
      </trkpt>
      <trkpt lat="48.15134" lon="3.33075">
        <ele>164.7</ele>
        <time>2024-05-15T10:43:33.000Z</time>
      </trkpt>
      <trkpt lat="48.15136" lon="3.3307">
        <ele>164.4</ele>
        <time>2024-05-15T10:43:32.000Z</time>
      </trkpt>
      <trkpt lat="48.15136" lon="3.33065">
        <ele>163.8</ele>
        <time>2024-05-15T10:43:31.000Z</time>
      </trkpt>
      <trkpt lat="48.15137" lon="3.33063">
        <ele>163.7</ele>
        <time>2024-05-15T10:43:30.000Z</time>
      </trkpt>
      <trkpt lat="48.1514" lon="3.33058">
        <ele>163.4</ele>
        <time>2024-05-15T10:43:28.000Z</time>
      </trkpt>
      <trkpt lat="48.15142" lon="3.33056">
        <ele>163.4</ele>
        <time>2024-05-15T10:43:27.000Z</time>
      </trkpt>
      <trkpt lat="48.15145" lon="3.33051">
        <ele>163.2</ele>
        <time>2024-05-15T10:43:25.000Z</time>
      </trkpt>
      <trkpt lat="48.15146" lon="3.33049">
        <ele>163.2</ele>
        <time>2024-05-15T10:43:24.000Z</time>
      </trkpt>
      <trkpt lat="48.15147" lon="3.33047">
        <ele>163.1</ele>
        <time>2024-05-15T10:43:23.000Z</time>
      </trkpt>
      <trkpt lat="48.15147" lon="3.33045">
        <ele>163</ele>
        <time>2024-05-15T10:43:22.000Z</time>
      </trkpt>
      <trkpt lat="48.15148" lon="3.33044">
        <ele>163</ele>
        <time>2024-05-15T10:43:21.000Z</time>
      </trkpt>
      <trkpt lat="48.15149" lon="3.3304">
        <ele>162.8</ele>
        <time>2024-05-15T10:43:19.000Z</time>
      </trkpt>
      <trkpt lat="48.15149" lon="3.33037">
        <ele>162.6</ele>
        <time>2024-05-15T10:43:18.000Z</time>
      </trkpt>
      <trkpt lat="48.1515" lon="3.33033">
        <ele>162.4</ele>
        <time>2024-05-15T10:43:16.000Z</time>
      </trkpt>
      <trkpt lat="48.15149" lon="3.33031">
        <ele>162.1</ele>
        <time>2024-05-15T10:43:06.000Z</time>
      </trkpt>
      <trkpt lat="48.15149" lon="3.33031">
        <ele>162.1</ele>
        <time>2024-05-15T10:42:55.000Z</time>
      </trkpt>
      <trkpt lat="48.1515" lon="3.33031">
        <ele>162.3</ele>
        <time>2024-05-15T10:42:48.000Z</time>
      </trkpt>
      <trkpt lat="48.1515" lon="3.33029">
        <ele>162.1</ele>
        <time>2024-05-15T10:42:47.000Z</time>
      </trkpt>
      <trkpt lat="48.1515" lon="3.33028">
        <ele>162</ele>
        <time>2024-05-15T10:42:46.000Z</time>
      </trkpt>
      <trkpt lat="48.1515" lon="3.33028">
        <ele>162</ele>
        <time>2024-05-15T10:42:45.000Z</time>
      </trkpt>
      <trkpt lat="48.1515" lon="3.33027">
        <ele>161.9</ele>
        <time>2024-05-15T10:42:44.000Z</time>
      </trkpt>
      <trkpt lat="48.1515" lon="3.33026">
        <ele>161.9</ele>
        <time>2024-05-15T10:42:41.000Z</time>
      </trkpt>
      <trkpt lat="48.1515" lon="3.33026">
        <ele>161.9</ele>
        <time>2024-05-15T10:42:40.000Z</time>
      </trkpt>
      <trkpt lat="48.1515" lon="3.33026">
        <ele>161.9</ele>
        <time>2024-05-15T10:42:37.000Z</time>
      </trkpt>
      <trkpt lat="48.1515" lon="3.33026">
        <ele>161.9</ele>
        <time>2024-05-15T10:42:35.000Z</time>
      </trkpt>
      <trkpt lat="48.1515" lon="3.33026">
        <ele>161.9</ele>
        <time>2024-05-15T10:42:33.000Z</time>
      </trkpt>
      <trkpt lat="48.1515" lon="3.33025">
        <ele>161.8</ele>
        <time>2024-05-15T10:42:32.000Z</time>
      </trkpt>
      <trkpt lat="48.1515" lon="3.33025">
        <ele>161.8</ele>
        <time>2024-05-15T10:42:31.000Z</time>
      </trkpt>
      <trkpt lat="48.1515" lon="3.33024">
        <ele>161.7</ele>
        <time>2024-05-15T10:42:30.000Z</time>
      </trkpt>
      <trkpt lat="48.15149" lon="3.33023">
        <ele>161.5</ele>
        <time>2024-05-15T10:42:29.000Z</time>
      </trkpt>
      <trkpt lat="48.15148" lon="3.33021">
        <ele>161.2</ele>
        <time>2024-05-15T10:42:28.000Z</time>
      </trkpt>
      <trkpt lat="48.15148" lon="3.33021">
        <ele>161.2</ele>
        <time>2024-05-15T10:42:27.000Z</time>
      </trkpt>
      <trkpt lat="48.15148" lon="3.33021">
        <ele>161.2</ele>
        <time>2024-05-15T10:42:26.000Z</time>
      </trkpt>
      <trkpt lat="48.15147" lon="3.3302">
        <ele>160.9</ele>
        <time>2024-05-15T10:42:25.000Z</time>
      </trkpt>
      <trkpt lat="48.15147" lon="3.33019">
        <ele>160.8</ele>
        <time>2024-05-15T10:42:24.000Z</time>
      </trkpt>
      <trkpt lat="48.15147" lon="3.33019">
        <ele>160.8</ele>
        <time>2024-05-15T10:42:23.000Z</time>
      </trkpt>
      <trkpt lat="48.15146" lon="3.33019">
        <ele>160.6</ele>
        <time>2024-05-15T10:42:22.000Z</time>
      </trkpt>
      <trkpt lat="48.15146" lon="3.33018">
        <ele>160.6</ele>
        <time>2024-05-15T10:42:21.000Z</time>
      </trkpt>
      <trkpt lat="48.15146" lon="3.33018">
        <ele>160.6</ele>
        <time>2024-05-15T10:42:20.000Z</time>
      </trkpt>
      <trkpt lat="48.15146" lon="3.33018">
        <ele>160.6</ele>
        <time>2024-05-15T10:42:19.000Z</time>
      </trkpt>
      <trkpt lat="48.15145" lon="3.33017">
        <ele>160.3</ele>
        <time>2024-05-15T10:42:18.000Z</time>
      </trkpt>
      <trkpt lat="48.15145" lon="3.33015">
        <ele>160.2</ele>
        <time>2024-05-15T10:42:17.000Z</time>
      </trkpt>
      <trkpt lat="48.15144" lon="3.33013">
        <ele>159.9</ele>
        <time>2024-05-15T10:42:16.000Z</time>
      </trkpt>
      <trkpt lat="48.15143" lon="3.3301">
        <ele>159.5</ele>
        <time>2024-05-15T10:42:15.000Z</time>
      </trkpt>
      <trkpt lat="48.15141" lon="3.33007">
        <ele>158.9</ele>
        <time>2024-05-15T10:42:14.000Z</time>
      </trkpt>
      <trkpt lat="48.15141" lon="3.33005">
        <ele>158.7</ele>
        <time>2024-05-15T10:42:13.000Z</time>
      </trkpt>
      <trkpt lat="48.1514" lon="3.33005">
        <ele>158.6</ele>
        <time>2024-05-15T10:42:12.000Z</time>
      </trkpt>
      <trkpt lat="48.15139" lon="3.33003">
        <ele>158.2</ele>
        <time>2024-05-15T10:42:11.000Z</time>
      </trkpt>
      <trkpt lat="48.15139" lon="3.33002">
        <ele>158.2</ele>
        <time>2024-05-15T10:42:10.000Z</time>
      </trkpt>
      <trkpt lat="48.1514" lon="3.33001">
        <ele>158.3</ele>
        <time>2024-05-15T10:42:09.000Z</time>
      </trkpt>
      <trkpt lat="48.15139" lon="3.33">
        <ele>158</ele>
        <time>2024-05-15T10:42:08.000Z</time>
      </trkpt>
      <trkpt lat="48.15138" lon="3.32998">
        <ele>157.8</ele>
        <time>2024-05-15T10:42:07.000Z</time>
      </trkpt>
      <trkpt lat="48.15138" lon="3.32996">
        <ele>157.7</ele>
        <time>2024-05-15T10:42:06.000Z</time>
      </trkpt>
      <trkpt lat="48.15137" lon="3.32994">
        <ele>157.5</ele>
        <time>2024-05-15T10:42:05.000Z</time>
      </trkpt>
      <trkpt lat="48.15137" lon="3.32992">
        <ele>157.4</ele>
        <time>2024-05-15T10:42:04.000Z</time>
      </trkpt>
      <trkpt lat="48.15137" lon="3.32991">
        <ele>157.4</ele>
        <time>2024-05-15T10:42:03.000Z</time>
      </trkpt>
      <trkpt lat="48.15136" lon="3.32988">
        <ele>157.1</ele>
        <time>2024-05-15T10:42:02.000Z</time>
      </trkpt>
      <trkpt lat="48.15135" lon="3.32986">
        <ele>156.8</ele>
        <time>2024-05-15T10:42:01.000Z</time>
      </trkpt>
      <trkpt lat="48.15134" lon="3.32984">
        <ele>156.5</ele>
        <time>2024-05-15T10:42:00.000Z</time>
      </trkpt>
      <trkpt lat="48.15134" lon="3.32984">
        <ele>156.5</ele>
        <time>2024-05-15T10:41:59.000Z</time>
      </trkpt>
      <trkpt lat="48.15132" lon="3.32982">
        <ele>156</ele>
        <time>2024-05-15T10:41:58.000Z</time>
      </trkpt>
      <trkpt lat="48.15132" lon="3.32982">
        <ele>156</ele>
        <time>2024-05-15T10:41:57.000Z</time>
      </trkpt>
      <trkpt lat="48.15132" lon="3.32982">
        <ele>156</ele>
        <time>2024-05-15T10:41:55.000Z</time>
      </trkpt>
      <trkpt lat="48.15132" lon="3.32982">
        <ele>156</ele>
        <time>2024-05-15T10:41:54.000Z</time>
      </trkpt>
      <trkpt lat="48.15132" lon="3.32982">
        <ele>156</ele>
        <time>2024-05-15T10:41:53.000Z</time>
      </trkpt>
      <trkpt lat="48.15132" lon="3.32982">
        <ele>156</ele>
        <time>2024-05-15T10:41:52.000Z</time>
      </trkpt>
      <trkpt lat="48.15132" lon="3.32981">
        <ele>156</ele>
        <time>2024-05-15T10:41:51.000Z</time>
      </trkpt>
      <trkpt lat="48.15126" lon="3.32975">
        <ele>154.4</ele>
        <time>2024-05-15T10:41:45.000Z</time>
      </trkpt>
      <trkpt lat="48.15123" lon="3.32972">
        <ele>153.6</ele>
        <time>2024-05-15T10:41:38.000Z</time>
      </trkpt>
      <trkpt lat="48.15123" lon="3.32971">
        <ele>153.5</ele>
        <time>2024-05-15T10:41:37.000Z</time>
      </trkpt>
      <trkpt lat="48.15123" lon="3.32971">
        <ele>153.5</ele>
        <time>2024-05-15T10:41:36.000Z</time>
      </trkpt>
      <trkpt lat="48.15123" lon="3.32971">
        <ele>153.5</ele>
        <time>2024-05-15T10:41:35.000Z</time>
      </trkpt>
      <trkpt lat="48.15122" lon="3.3297">
        <ele>153.2</ele>
        <time>2024-05-15T10:41:34.000Z</time>
      </trkpt>
      <trkpt lat="48.15122" lon="3.32969">
        <ele>153.1</ele>
        <time>2024-05-15T10:41:33.000Z</time>
      </trkpt>
      <trkpt lat="48.15121" lon="3.32968">
        <ele>152.8</ele>
        <time>2024-05-15T10:41:32.000Z</time>
      </trkpt>
      <trkpt lat="48.1512" lon="3.32968">
        <ele>152.6</ele>
        <time>2024-05-15T10:41:30.000Z</time>
      </trkpt>
      <trkpt lat="48.1512" lon="3.32968">
        <ele>152.6</ele>
        <time>2024-05-15T10:41:28.000Z</time>
      </trkpt>
      <trkpt lat="48.1512" lon="3.32968">
        <ele>152.6</ele>
        <time>2024-05-15T10:41:23.000Z</time>
      </trkpt>
      <trkpt lat="48.1512" lon="3.32968">
        <ele>152.6</ele>
        <time>2024-05-15T10:41:19.000Z</time>
      </trkpt>
      <trkpt lat="48.1512" lon="3.32968">
        <ele>152.6</ele>
        <time>2024-05-15T10:41:17.000Z</time>
      </trkpt>
      <trkpt lat="48.1512" lon="3.32968">
        <ele>152.6</ele>
        <time>2024-05-15T10:41:15.000Z</time>
      </trkpt>
      <trkpt lat="48.1512" lon="3.32967">
        <ele>152.5</ele>
        <time>2024-05-15T10:41:14.000Z</time>
      </trkpt>
      <trkpt lat="48.15119" lon="3.32966">
        <ele>152.3</ele>
        <time>2024-05-15T10:41:13.000Z</time>
      </trkpt>
      <trkpt lat="48.15118" lon="3.32966">
        <ele>152</ele>
        <time>2024-05-15T10:41:12.000Z</time>
      </trkpt>
      <trkpt lat="48.15118" lon="3.32966">
        <ele>152</ele>
        <time>2024-05-15T10:41:10.000Z</time>
      </trkpt>
      <trkpt lat="48.15118" lon="3.32966">
        <ele>152</ele>
        <time>2024-05-15T10:41:09.000Z</time>
      </trkpt>
      <trkpt lat="48.15118" lon="3.32965">
        <ele>152</ele>
        <time>2024-05-15T10:41:08.000Z</time>
      </trkpt>
      <trkpt lat="48.15117" lon="3.32963">
        <ele>151.6</ele>
        <time>2024-05-15T10:41:07.000Z</time>
      </trkpt>
      <trkpt lat="48.15116" lon="3.32962">
        <ele>151.3</ele>
        <time>2024-05-15T10:41:06.000Z</time>
      </trkpt>
      <trkpt lat="48.15115" lon="3.3296">
        <ele>151</ele>
        <time>2024-05-15T10:41:05.000Z</time>
      </trkpt>
      <trkpt lat="48.15114" lon="3.32959">
        <ele>150.7</ele>
        <time>2024-05-15T10:41:04.000Z</time>
      </trkpt>
      <trkpt lat="48.15114" lon="3.32958">
        <ele>150.6</ele>
        <time>2024-05-15T10:41:03.000Z</time>
      </trkpt>
      <trkpt lat="48.15113" lon="3.32958">
        <ele>150.4</ele>
        <time>2024-05-15T10:41:02.000Z</time>
      </trkpt>
      <trkpt lat="48.15113" lon="3.32958">
        <ele>150.4</ele>
        <time>2024-05-15T10:41:01.000Z</time>
      </trkpt>
      <trkpt lat="48.15113" lon="3.32958">
        <ele>150.4</ele>
        <time>2024-05-15T10:41:00.000Z</time>
      </trkpt>
      <trkpt lat="48.15112" lon="3.32957">
        <ele>150.1</ele>
        <time>2024-05-15T10:40:59.000Z</time>
      </trkpt>
      <trkpt lat="48.15112" lon="3.32957">
        <ele>150.1</ele>
        <time>2024-05-15T10:40:58.000Z</time>
      </trkpt>
      <trkpt lat="48.15111" lon="3.32956">
        <ele>149.8</ele>
        <time>2024-05-15T10:40:57.000Z</time>
      </trkpt>
      <trkpt lat="48.15111" lon="3.32956">
        <ele>149.8</ele>
        <time>2024-05-15T10:40:56.000Z</time>
      </trkpt>
      <trkpt lat="48.15111" lon="3.32956">
        <ele>149.8</ele>
        <time>2024-05-15T10:40:55.000Z</time>
      </trkpt>
      <trkpt lat="48.1511" lon="3.32955">
        <ele>149.7</ele>
        <time>2024-05-15T10:40:54.000Z</time>
      </trkpt>
      <trkpt lat="48.15109" lon="3.32954">
        <ele>149.5</ele>
        <time>2024-05-15T10:40:53.000Z</time>
      </trkpt>
      <trkpt lat="48.15108" lon="3.32953">
        <ele>149.3</ele>
        <time>2024-05-15T10:40:52.000Z</time>
      </trkpt>
      <trkpt lat="48.15108" lon="3.32953">
        <ele>149.3</ele>
        <time>2024-05-15T10:40:51.000Z</time>
      </trkpt>
      <trkpt lat="48.15108" lon="3.32953">
        <ele>149.3</ele>
        <time>2024-05-15T10:40:50.000Z</time>
      </trkpt>
      <trkpt lat="48.15107" lon="3.32952">
        <ele>149.1</ele>
        <time>2024-05-15T10:40:49.000Z</time>
      </trkpt>
      <trkpt lat="48.15106" lon="3.32951">
        <ele>149</ele>
        <time>2024-05-15T10:40:48.000Z</time>
      </trkpt>
      <trkpt lat="48.15105" lon="3.3295">
        <ele>148.8</ele>
        <time>2024-05-15T10:40:47.000Z</time>
      </trkpt>
      <trkpt lat="48.15105" lon="3.32949">
        <ele>148.7</ele>
        <time>2024-05-15T10:40:46.000Z</time>
      </trkpt>
      <trkpt lat="48.15105" lon="3.32949">
        <ele>148.7</ele>
        <time>2024-05-15T10:40:45.000Z</time>
      </trkpt>
      <trkpt lat="48.15104" lon="3.32949">
        <ele>148.6</ele>
        <time>2024-05-15T10:40:44.000Z</time>
      </trkpt>
      <trkpt lat="48.15103" lon="3.32949">
        <ele>148.5</ele>
        <time>2024-05-15T10:40:43.000Z</time>
      </trkpt>
      <trkpt lat="48.15102" lon="3.32948">
        <ele>148.3</ele>
        <time>2024-05-15T10:40:42.000Z</time>
      </trkpt>
      <trkpt lat="48.151" lon="3.32947">
        <ele>148</ele>
        <time>2024-05-15T10:40:41.000Z</time>
      </trkpt>
      <trkpt lat="48.15099" lon="3.32946">
        <ele>147.8</ele>
        <time>2024-05-15T10:40:40.000Z</time>
      </trkpt>
      <trkpt lat="48.15098" lon="3.32946">
        <ele>147.7</ele>
        <time>2024-05-15T10:40:39.000Z</time>
      </trkpt>
      <trkpt lat="48.15097" lon="3.32945">
        <ele>147.5</ele>
        <time>2024-05-15T10:40:38.000Z</time>
      </trkpt>
      <trkpt lat="48.15097" lon="3.32944">
        <ele>147.4</ele>
        <time>2024-05-15T10:40:37.000Z</time>
      </trkpt>
      <trkpt lat="48.15097" lon="3.32944">
        <ele>147.4</ele>
        <time>2024-05-15T10:40:36.000Z</time>
      </trkpt>
      <trkpt lat="48.15096" lon="3.32944">
        <ele>147.3</ele>
        <time>2024-05-15T10:40:35.000Z</time>
      </trkpt>
      <trkpt lat="48.15096" lon="3.32943">
        <ele>147.2</ele>
        <time>2024-05-15T10:40:34.000Z</time>
      </trkpt>
      <trkpt lat="48.15095" lon="3.32943">
        <ele>147.1</ele>
        <time>2024-05-15T10:40:33.000Z</time>
      </trkpt>
      <trkpt lat="48.15095" lon="3.32943">
        <ele>147.1</ele>
        <time>2024-05-15T10:40:32.000Z</time>
      </trkpt>
      <trkpt lat="48.15095" lon="3.32942">
        <ele>147</ele>
        <time>2024-05-15T10:40:31.000Z</time>
      </trkpt>
      <trkpt lat="48.15094" lon="3.32941">
        <ele>146.8</ele>
        <time>2024-05-15T10:40:30.000Z</time>
      </trkpt>
      <trkpt lat="48.15092" lon="3.3294">
        <ele>146.5</ele>
        <time>2024-05-15T10:40:29.000Z</time>
      </trkpt>
      <trkpt lat="48.15091" lon="3.32938">
        <ele>146.2</ele>
        <time>2024-05-15T10:40:27.000Z</time>
      </trkpt>
      <trkpt lat="48.1509" lon="3.32938">
        <ele>146.1</ele>
        <time>2024-05-15T10:40:26.000Z</time>
      </trkpt>
      <trkpt lat="48.1509" lon="3.32937">
        <ele>146</ele>
        <time>2024-05-15T10:40:25.000Z</time>
      </trkpt>
      <trkpt lat="48.1509" lon="3.32937">
        <ele>146</ele>
        <time>2024-05-15T10:40:23.000Z</time>
      </trkpt>
      <trkpt lat="48.1509" lon="3.32937">
        <ele>146</ele>
        <time>2024-05-15T10:40:22.000Z</time>
      </trkpt>
      <trkpt lat="48.1509" lon="3.32937">
        <ele>146</ele>
        <time>2024-05-15T10:40:20.000Z</time>
      </trkpt>
      <trkpt lat="48.1509" lon="3.32937">
        <ele>146</ele>
        <time>2024-05-15T10:40:19.000Z</time>
      </trkpt>
      <trkpt lat="48.1509" lon="3.32937">
        <ele>146</ele>
        <time>2024-05-15T10:40:18.000Z</time>
      </trkpt>
      <trkpt lat="48.15089" lon="3.32937">
        <ele>145.9</ele>
        <time>2024-05-15T10:40:17.000Z</time>
      </trkpt>
      <trkpt lat="48.15088" lon="3.32936">
        <ele>145.6</ele>
        <time>2024-05-15T10:40:16.000Z</time>
      </trkpt>
      <trkpt lat="48.15087" lon="3.32935">
        <ele>145.4</ele>
        <time>2024-05-15T10:40:15.000Z</time>
      </trkpt>
      <trkpt lat="48.15086" lon="3.32932">
        <ele>145</ele>
        <time>2024-05-15T10:40:14.000Z</time>
      </trkpt>
      <trkpt lat="48.15086" lon="3.32932">
        <ele>145</ele>
        <time>2024-05-15T10:40:13.000Z</time>
      </trkpt>
      <trkpt lat="48.15085" lon="3.32931">
        <ele>144.8</ele>
        <time>2024-05-15T10:40:12.000Z</time>
      </trkpt>
      <trkpt lat="48.15084" lon="3.3293">
        <ele>144.5</ele>
        <time>2024-05-15T10:40:10.000Z</time>
      </trkpt>
      <trkpt lat="48.15083" lon="3.32929">
        <ele>144.3</ele>
        <time>2024-05-15T10:40:09.000Z</time>
      </trkpt>
      <trkpt lat="48.1508" lon="3.32923">
        <ele>143.8</ele>
        <time>2024-05-15T10:40:07.000Z</time>
      </trkpt>
      <trkpt lat="48.15079" lon="3.32921">
        <ele>143.6</ele>
        <time>2024-05-15T10:40:00.000Z</time>
      </trkpt>
      <trkpt lat="48.15078" lon="3.3292">
        <ele>143.6</ele>
        <time>2024-05-15T10:39:58.000Z</time>
      </trkpt>
      <trkpt lat="48.15078" lon="3.3292">
        <ele>143.6</ele>
        <time>2024-05-15T10:39:54.000Z</time>
      </trkpt>
      <trkpt lat="48.15078" lon="3.3292">
        <ele>143.6</ele>
        <time>2024-05-15T10:39:53.000Z</time>
      </trkpt>
      <trkpt lat="48.15078" lon="3.3292">
        <ele>143.6</ele>
        <time>2024-05-15T10:39:51.000Z</time>
      </trkpt>
      <trkpt lat="48.15078" lon="3.3292">
        <ele>143.6</ele>
        <time>2024-05-15T10:39:49.000Z</time>
      </trkpt>
      <trkpt lat="48.15078" lon="3.3292">
        <ele>143.6</ele>
        <time>2024-05-15T10:39:48.000Z</time>
      </trkpt>
      <trkpt lat="48.15075" lon="3.32914">
        <ele>143</ele>
        <time>2024-05-15T10:39:47.000Z</time>
      </trkpt>
      <trkpt lat="48.15075" lon="3.32911">
        <ele>142.6</ele>
        <time>2024-05-15T10:39:46.000Z</time>
      </trkpt>
      <trkpt lat="48.15075" lon="3.3291">
        <ele>142.5</ele>
        <time>2024-05-15T10:39:45.000Z</time>
      </trkpt>
      <trkpt lat="48.15076" lon="3.3291">
        <ele>142.5</ele>
        <time>2024-05-15T10:39:44.000Z</time>
      </trkpt>
      <trkpt lat="48.15076" lon="3.3291">
        <ele>142.5</ele>
        <time>2024-05-15T10:39:43.000Z</time>
      </trkpt>
      <trkpt lat="48.15077" lon="3.32909">
        <ele>142.3</ele>
        <time>2024-05-15T10:39:42.000Z</time>
      </trkpt>
      <trkpt lat="48.15077" lon="3.32904">
        <ele>141.8</ele>
        <time>2024-05-15T10:39:41.000Z</time>
      </trkpt>
      <trkpt lat="48.15077" lon="3.32902">
        <ele>141.5</ele>
        <time>2024-05-15T10:39:40.000Z</time>
      </trkpt>
      <trkpt lat="48.15077" lon="3.329">
        <ele>141.3</ele>
        <time>2024-05-15T10:39:39.000Z</time>
      </trkpt>
      <trkpt lat="48.15076" lon="3.32897">
        <ele>141</ele>
        <time>2024-05-15T10:39:38.000Z</time>
      </trkpt>
      <trkpt lat="48.15077" lon="3.32894">
        <ele>140.6</ele>
        <time>2024-05-15T10:39:37.000Z</time>
      </trkpt>
      <trkpt lat="48.15077" lon="3.32893">
        <ele>140.5</ele>
        <time>2024-05-15T10:39:36.000Z</time>
      </trkpt>
      <trkpt lat="48.15078" lon="3.32892">
        <ele>140.4</ele>
        <time>2024-05-15T10:39:35.000Z</time>
      </trkpt>
      <trkpt lat="48.15078" lon="3.3289">
        <ele>140.1</ele>
        <time>2024-05-15T10:39:34.000Z</time>
      </trkpt>
      <trkpt lat="48.15078" lon="3.32888">
        <ele>139.9</ele>
        <time>2024-05-15T10:39:33.000Z</time>
      </trkpt>
      <trkpt lat="48.15078" lon="3.32886">
        <ele>139.8</ele>
        <time>2024-05-15T10:39:32.000Z</time>
      </trkpt>
      <trkpt lat="48.15078" lon="3.32884">
        <ele>139.6</ele>
        <time>2024-05-15T10:39:31.000Z</time>
      </trkpt>
      <trkpt lat="48.15078" lon="3.32881">
        <ele>139.3</ele>
        <time>2024-05-15T10:39:30.000Z</time>
      </trkpt>
      <trkpt lat="48.15078" lon="3.32878">
        <ele>139.1</ele>
        <time>2024-05-15T10:39:29.000Z</time>
      </trkpt>
      <trkpt lat="48.15077" lon="3.32875">
        <ele>138.8</ele>
        <time>2024-05-15T10:39:28.000Z</time>
      </trkpt>
      <trkpt lat="48.15077" lon="3.32873">
        <ele>138.6</ele>
        <time>2024-05-15T10:39:27.000Z</time>
      </trkpt>
      <trkpt lat="48.15077" lon="3.32871">
        <ele>138.4</ele>
        <time>2024-05-15T10:39:26.000Z</time>
      </trkpt>
      <trkpt lat="48.15077" lon="3.32871">
        <ele>138.4</ele>
        <time>2024-05-15T10:39:25.000Z</time>
      </trkpt>
      <trkpt lat="48.15077" lon="3.3287">
        <ele>138.3</ele>
        <time>2024-05-15T10:39:24.000Z</time>
      </trkpt>
      <trkpt lat="48.15077" lon="3.3287">
        <ele>138.3</ele>
        <time>2024-05-15T10:39:23.000Z</time>
      </trkpt>
      <trkpt lat="48.15077" lon="3.32869">
        <ele>138.2</ele>
        <time>2024-05-15T10:39:22.000Z</time>
      </trkpt>
      <trkpt lat="48.15077" lon="3.32867">
        <ele>138.1</ele>
        <time>2024-05-15T10:39:21.000Z</time>
      </trkpt>
      <trkpt lat="48.15077" lon="3.32864">
        <ele>137.8</ele>
        <time>2024-05-15T10:39:20.000Z</time>
      </trkpt>
      <trkpt lat="48.15077" lon="3.3286">
        <ele>137.4</ele>
        <time>2024-05-15T10:39:19.000Z</time>
      </trkpt>
      <trkpt lat="48.15076" lon="3.32858">
        <ele>137.1</ele>
        <time>2024-05-15T10:39:18.000Z</time>
      </trkpt>
      <trkpt lat="48.15076" lon="3.32857">
        <ele>137</ele>
        <time>2024-05-15T10:39:17.000Z</time>
      </trkpt>
      <trkpt lat="48.15076" lon="3.32856">
        <ele>136.9</ele>
        <time>2024-05-15T10:39:16.000Z</time>
      </trkpt>
      <trkpt lat="48.15076" lon="3.32853">
        <ele>136.5</ele>
        <time>2024-05-15T10:39:15.000Z</time>
      </trkpt>
      <trkpt lat="48.15076" lon="3.32852">
        <ele>136.4</ele>
        <time>2024-05-15T10:39:14.000Z</time>
      </trkpt>
      <trkpt lat="48.15076" lon="3.32852">
        <ele>136.4</ele>
        <time>2024-05-15T10:39:13.000Z</time>
      </trkpt>
      <trkpt lat="48.15076" lon="3.3285">
        <ele>136.2</ele>
        <time>2024-05-15T10:39:12.000Z</time>
      </trkpt>
      <trkpt lat="48.15076" lon="3.3285">
        <ele>136.2</ele>
        <time>2024-05-15T10:39:11.000Z</time>
      </trkpt>
      <trkpt lat="48.15076" lon="3.32849">
        <ele>136</ele>
        <time>2024-05-15T10:39:10.000Z</time>
      </trkpt>
      <trkpt lat="48.15076" lon="3.32848">
        <ele>135.9</ele>
        <time>2024-05-15T10:39:09.000Z</time>
      </trkpt>
      <trkpt lat="48.15076" lon="3.32848">
        <ele>135.9</ele>
        <time>2024-05-15T10:39:08.000Z</time>
      </trkpt>
      <trkpt lat="48.15076" lon="3.32848">
        <ele>135.9</ele>
        <time>2024-05-15T10:39:07.000Z</time>
      </trkpt>
      <trkpt lat="48.15076" lon="3.32847">
        <ele>135.8</ele>
        <time>2024-05-15T10:39:06.000Z</time>
      </trkpt>
      <trkpt lat="48.15076" lon="3.32844">
        <ele>135.5</ele>
        <time>2024-05-15T10:39:05.000Z</time>
      </trkpt>
      <trkpt lat="48.15075" lon="3.32842">
        <ele>135.1</ele>
        <time>2024-05-15T10:39:04.000Z</time>
      </trkpt>
      <trkpt lat="48.15075" lon="3.32839">
        <ele>134.8</ele>
        <time>2024-05-15T10:39:03.000Z</time>
      </trkpt>
      <trkpt lat="48.15074" lon="3.32836">
        <ele>134.3</ele>
        <time>2024-05-15T10:39:02.000Z</time>
      </trkpt>
      <trkpt lat="48.15074" lon="3.32833">
        <ele>134</ele>
        <time>2024-05-15T10:39:01.000Z</time>
      </trkpt>
      <trkpt lat="48.15074" lon="3.32831">
        <ele>133.8</ele>
        <time>2024-05-15T10:39:00.000Z</time>
      </trkpt>
      <trkpt lat="48.15073" lon="3.3283">
        <ele>133.6</ele>
        <time>2024-05-15T10:38:59.000Z</time>
      </trkpt>
      <trkpt lat="48.15073" lon="3.32829">
        <ele>133.5</ele>
        <time>2024-05-15T10:38:58.000Z</time>
      </trkpt>
      <trkpt lat="48.15074" lon="3.32828">
        <ele>133.5</ele>
        <time>2024-05-15T10:38:57.000Z</time>
      </trkpt>
      <trkpt lat="48.15074" lon="3.32827">
        <ele>133.5</ele>
        <time>2024-05-15T10:38:56.000Z</time>
      </trkpt>
      <trkpt lat="48.15073" lon="3.32825">
        <ele>133.2</ele>
        <time>2024-05-15T10:38:55.000Z</time>
      </trkpt>
      <trkpt lat="48.15073" lon="3.32824">
        <ele>133.1</ele>
        <time>2024-05-15T10:38:54.000Z</time>
      </trkpt>
      <trkpt lat="48.15073" lon="3.32823">
        <ele>133</ele>
        <time>2024-05-15T10:38:53.000Z</time>
      </trkpt>
      <trkpt lat="48.15073" lon="3.3282">
        <ele>132.7</ele>
        <time>2024-05-15T10:38:52.000Z</time>
      </trkpt>
      <trkpt lat="48.15073" lon="3.32818">
        <ele>132.6</ele>
        <time>2024-05-15T10:38:51.000Z</time>
      </trkpt>
      <trkpt lat="48.15073" lon="3.32816">
        <ele>132.4</ele>
        <time>2024-05-15T10:38:50.000Z</time>
      </trkpt>
      <trkpt lat="48.15072" lon="3.32813">
        <ele>132</ele>
        <time>2024-05-15T10:38:49.000Z</time>
      </trkpt>
      <trkpt lat="48.15072" lon="3.32811">
        <ele>131.8</ele>
        <time>2024-05-15T10:38:48.000Z</time>
      </trkpt>
      <trkpt lat="48.15071" lon="3.32809">
        <ele>131.5</ele>
        <time>2024-05-15T10:38:47.000Z</time>
      </trkpt>
      <trkpt lat="48.15071" lon="3.32807">
        <ele>131.4</ele>
        <time>2024-05-15T10:38:46.000Z</time>
      </trkpt>
      <trkpt lat="48.15071" lon="3.32807">
        <ele>131.4</ele>
        <time>2024-05-15T10:38:45.000Z</time>
      </trkpt>
      <trkpt lat="48.15071" lon="3.32806">
        <ele>131.3</ele>
        <time>2024-05-15T10:38:44.000Z</time>
      </trkpt>
      <trkpt lat="48.1507" lon="3.32803">
        <ele>130.9</ele>
        <time>2024-05-15T10:38:43.000Z</time>
      </trkpt>
      <trkpt lat="48.1507" lon="3.32802">
        <ele>130.8</ele>
        <time>2024-05-15T10:38:42.000Z</time>
      </trkpt>
      <trkpt lat="48.15069" lon="3.328">
        <ele>130.4</ele>
        <time>2024-05-15T10:38:41.000Z</time>
      </trkpt>
      <trkpt lat="48.15069" lon="3.32797">
        <ele>130.2</ele>
        <time>2024-05-15T10:38:40.000Z</time>
      </trkpt>
      <trkpt lat="48.15068" lon="3.32795">
        <ele>129.8</ele>
        <time>2024-05-15T10:38:39.000Z</time>
      </trkpt>
      <trkpt lat="48.15068" lon="3.32792">
        <ele>129.5</ele>
        <time>2024-05-15T10:38:38.000Z</time>
      </trkpt>
      <trkpt lat="48.15067" lon="3.3279">
        <ele>129.2</ele>
        <time>2024-05-15T10:38:37.000Z</time>
      </trkpt>
      <trkpt lat="48.15067" lon="3.32788">
        <ele>129</ele>
        <time>2024-05-15T10:38:36.000Z</time>
      </trkpt>
      <trkpt lat="48.15067" lon="3.32786">
        <ele>128.8</ele>
        <time>2024-05-15T10:38:35.000Z</time>
      </trkpt>
      <trkpt lat="48.15066" lon="3.32785">
        <ele>128.6</ele>
        <time>2024-05-15T10:38:34.000Z</time>
      </trkpt>
      <trkpt lat="48.15066" lon="3.32783">
        <ele>128.4</ele>
        <time>2024-05-15T10:38:33.000Z</time>
      </trkpt>
      <trkpt lat="48.15065" lon="3.32781">
        <ele>128</ele>
        <time>2024-05-15T10:38:32.000Z</time>
      </trkpt>
      <trkpt lat="48.15065" lon="3.3278">
        <ele>127.9</ele>
        <time>2024-05-15T10:38:31.000Z</time>
      </trkpt>
      <trkpt lat="48.15065" lon="3.32778">
        <ele>127.7</ele>
        <time>2024-05-15T10:38:30.000Z</time>
      </trkpt>
      <trkpt lat="48.15065" lon="3.32777">
        <ele>127.7</ele>
        <time>2024-05-15T10:38:29.000Z</time>
      </trkpt>
      <trkpt lat="48.15064" lon="3.32775">
        <ele>127.4</ele>
        <time>2024-05-15T10:38:28.000Z</time>
      </trkpt>
      <trkpt lat="48.15064" lon="3.32773">
        <ele>127.2</ele>
        <time>2024-05-15T10:38:27.000Z</time>
      </trkpt>
      <trkpt lat="48.15063" lon="3.32772">
        <ele>127</ele>
        <time>2024-05-15T10:38:26.000Z</time>
      </trkpt>
      <trkpt lat="48.15062" lon="3.32771">
        <ele>126.7</ele>
        <time>2024-05-15T10:38:25.000Z</time>
      </trkpt>
      <trkpt lat="48.15062" lon="3.3277">
        <ele>126.7</ele>
        <time>2024-05-15T10:38:24.000Z</time>
      </trkpt>
      <trkpt lat="48.1506" lon="3.3277">
        <ele>126.3</ele>
        <time>2024-05-15T10:38:23.000Z</time>
      </trkpt>
      <trkpt lat="48.15059" lon="3.32767">
        <ele>125.9</ele>
        <time>2024-05-15T10:38:22.000Z</time>
      </trkpt>
      <trkpt lat="48.15058" lon="3.32766">
        <ele>125.6</ele>
        <time>2024-05-15T10:38:21.000Z</time>
      </trkpt>
      <trkpt lat="48.15058" lon="3.32766">
        <ele>125.6</ele>
        <time>2024-05-15T10:38:20.000Z</time>
      </trkpt>
      <trkpt lat="48.15057" lon="3.32765">
        <ele>125.4</ele>
        <time>2024-05-15T10:38:19.000Z</time>
      </trkpt>
      <trkpt lat="48.15056" lon="3.32762">
        <ele>125</ele>
        <time>2024-05-15T10:38:18.000Z</time>
      </trkpt>
      <trkpt lat="48.15055" lon="3.32759">
        <ele>124.6</ele>
        <time>2024-05-15T10:38:17.000Z</time>
      </trkpt>
      <trkpt lat="48.15054" lon="3.32756">
        <ele>124.4</ele>
        <time>2024-05-15T10:38:16.000Z</time>
      </trkpt>
      <trkpt lat="48.15053" lon="3.32754">
        <ele>124.2</ele>
        <time>2024-05-15T10:38:15.000Z</time>
      </trkpt>
      <trkpt lat="48.15053" lon="3.32753">
        <ele>124.1</ele>
        <time>2024-05-15T10:38:14.000Z</time>
      </trkpt>
      <trkpt lat="48.15052" lon="3.32752">
        <ele>124</ele>
        <time>2024-05-15T10:38:13.000Z</time>
      </trkpt>
      <trkpt lat="48.15051" lon="3.32749">
        <ele>123.8</ele>
        <time>2024-05-15T10:38:12.000Z</time>
      </trkpt>
      <trkpt lat="48.1505" lon="3.32747">
        <ele>123.7</ele>
        <time>2024-05-15T10:38:11.000Z</time>
      </trkpt>
      <trkpt lat="48.15049" lon="3.32743">
        <ele>123.5</ele>
        <time>2024-05-15T10:38:10.000Z</time>
      </trkpt>
      <trkpt lat="48.15049" lon="3.32741">
        <ele>123.4</ele>
        <time>2024-05-15T10:38:09.000Z</time>
      </trkpt>
      <trkpt lat="48.15048" lon="3.32739">
        <ele>123.2</ele>
        <time>2024-05-15T10:38:08.000Z</time>
      </trkpt>
      <trkpt lat="48.15047" lon="3.32737">
        <ele>123.1</ele>
        <time>2024-05-15T10:38:07.000Z</time>
      </trkpt>
      <trkpt lat="48.15046" lon="3.32735">
        <ele>122.9</ele>
        <time>2024-05-15T10:38:06.000Z</time>
      </trkpt>
      <trkpt lat="48.15045" lon="3.32732">
        <ele>122.7</ele>
        <time>2024-05-15T10:38:05.000Z</time>
      </trkpt>
      <trkpt lat="48.15043" lon="3.32727">
        <ele>122.3</ele>
        <time>2024-05-15T10:38:04.000Z</time>
      </trkpt>
      <trkpt lat="48.15042" lon="3.32724">
        <ele>122.1</ele>
        <time>2024-05-15T10:38:03.000Z</time>
      </trkpt>
      <trkpt lat="48.15042" lon="3.32721">
        <ele>122</ele>
        <time>2024-05-15T10:38:02.000Z</time>
      </trkpt>
      <trkpt lat="48.15042" lon="3.32721">
        <ele>122</ele>
        <time>2024-05-15T10:38:01.000Z</time>
      </trkpt>
      <trkpt lat="48.15042" lon="3.3272">
        <ele>121.9</ele>
        <time>2024-05-15T10:38:00.000Z</time>
      </trkpt>
      <trkpt lat="48.15041" lon="3.32718">
        <ele>121.7</ele>
        <time>2024-05-15T10:37:59.000Z</time>
      </trkpt>
      <trkpt lat="48.1504" lon="3.32714">
        <ele>121.4</ele>
        <time>2024-05-15T10:37:58.000Z</time>
      </trkpt>
      <trkpt lat="48.15039" lon="3.3271">
        <ele>121.1</ele>
        <time>2024-05-15T10:37:57.000Z</time>
      </trkpt>
      <trkpt lat="48.15039" lon="3.32708">
        <ele>121</ele>
        <time>2024-05-15T10:37:56.000Z</time>
      </trkpt>
      <trkpt lat="48.15039" lon="3.32706">
        <ele>120.9</ele>
        <time>2024-05-15T10:37:55.000Z</time>
      </trkpt>
      <trkpt lat="48.15038" lon="3.32703">
        <ele>120.6</ele>
        <time>2024-05-15T10:37:54.000Z</time>
      </trkpt>
      <trkpt lat="48.15038" lon="3.32701">
        <ele>120.5</ele>
        <time>2024-05-15T10:37:53.000Z</time>
      </trkpt>
      <trkpt lat="48.15038" lon="3.327">
        <ele>120.4</ele>
        <time>2024-05-15T10:37:52.000Z</time>
      </trkpt>
      <trkpt lat="48.15038" lon="3.32698">
        <ele>120.3</ele>
        <time>2024-05-15T10:37:51.000Z</time>
      </trkpt>
      <trkpt lat="48.15037" lon="3.32696">
        <ele>120.1</ele>
        <time>2024-05-15T10:37:50.000Z</time>
      </trkpt>
      <trkpt lat="48.15037" lon="3.32694">
        <ele>120</ele>
        <time>2024-05-15T10:37:49.000Z</time>
      </trkpt>
      <trkpt lat="48.15035" lon="3.32691">
        <ele>119.7</ele>
        <time>2024-05-15T10:37:48.000Z</time>
      </trkpt>
      <trkpt lat="48.15034" lon="3.32688">
        <ele>119.5</ele>
        <time>2024-05-15T10:37:47.000Z</time>
      </trkpt>
      <trkpt lat="48.15033" lon="3.32686">
        <ele>119.3</ele>
        <time>2024-05-15T10:37:46.000Z</time>
      </trkpt>
      <trkpt lat="48.15033" lon="3.32682">
        <ele>119.2</ele>
        <time>2024-05-15T10:37:45.000Z</time>
      </trkpt>
      <trkpt lat="48.15032" lon="3.3268">
        <ele>119</ele>
        <time>2024-05-15T10:37:44.000Z</time>
      </trkpt>
      <trkpt lat="48.15032" lon="3.32678">
        <ele>119</ele>
        <time>2024-05-15T10:37:43.000Z</time>
      </trkpt>
      <trkpt lat="48.15031" lon="3.32676">
        <ele>118.8</ele>
        <time>2024-05-15T10:37:42.000Z</time>
      </trkpt>
      <trkpt lat="48.1503" lon="3.32674">
        <ele>118.6</ele>
        <time>2024-05-15T10:37:41.000Z</time>
      </trkpt>
      <trkpt lat="48.1503" lon="3.32672">
        <ele>118.5</ele>
        <time>2024-05-15T10:37:40.000Z</time>
      </trkpt>
      <trkpt lat="48.1503" lon="3.3267">
        <ele>118.4</ele>
        <time>2024-05-15T10:37:39.000Z</time>
      </trkpt>
      <trkpt lat="48.15029" lon="3.3267">
        <ele>118.3</ele>
        <time>2024-05-15T10:37:38.000Z</time>
      </trkpt>
      <trkpt lat="48.15029" lon="3.32669">
        <ele>118.3</ele>
        <time>2024-05-15T10:37:37.000Z</time>
      </trkpt>
      <trkpt lat="48.15029" lon="3.32668">
        <ele>118.2</ele>
        <time>2024-05-15T10:37:36.000Z</time>
      </trkpt>
      <trkpt lat="48.15029" lon="3.32666">
        <ele>118.2</ele>
        <time>2024-05-15T10:37:35.000Z</time>
      </trkpt>
      <trkpt lat="48.15028" lon="3.32663">
        <ele>117.9</ele>
        <time>2024-05-15T10:37:34.000Z</time>
      </trkpt>
      <trkpt lat="48.15029" lon="3.32661">
        <ele>118</ele>
        <time>2024-05-15T10:37:33.000Z</time>
      </trkpt>
      <trkpt lat="48.15028" lon="3.32659">
        <ele>117.8</ele>
        <time>2024-05-15T10:37:32.000Z</time>
      </trkpt>
      <trkpt lat="48.15028" lon="3.32657">
        <ele>117.7</ele>
        <time>2024-05-15T10:37:31.000Z</time>
      </trkpt>
      <trkpt lat="48.15027" lon="3.32656">
        <ele>117.6</ele>
        <time>2024-05-15T10:37:30.000Z</time>
      </trkpt>
      <trkpt lat="48.15027" lon="3.32655">
        <ele>117.5</ele>
        <time>2024-05-15T10:37:29.000Z</time>
      </trkpt>
      <trkpt lat="48.15028" lon="3.32653">
        <ele>117.5</ele>
        <time>2024-05-15T10:37:28.000Z</time>
      </trkpt>
      <trkpt lat="48.15028" lon="3.32652">
        <ele>117.5</ele>
        <time>2024-05-15T10:37:27.000Z</time>
      </trkpt>
      <trkpt lat="48.15027" lon="3.3265">
        <ele>117.4</ele>
        <time>2024-05-15T10:37:26.000Z</time>
      </trkpt>
      <trkpt lat="48.15027" lon="3.32648">
        <ele>117.3</ele>
        <time>2024-05-15T10:37:25.000Z</time>
      </trkpt>
      <trkpt lat="48.15026" lon="3.32646">
        <ele>117.1</ele>
        <time>2024-05-15T10:37:24.000Z</time>
      </trkpt>
      <trkpt lat="48.15025" lon="3.32644">
        <ele>117</ele>
        <time>2024-05-15T10:37:23.000Z</time>
      </trkpt>
      <trkpt lat="48.15025" lon="3.32642">
        <ele>116.9</ele>
        <time>2024-05-15T10:37:22.000Z</time>
      </trkpt>
      <trkpt lat="48.15024" lon="3.32639">
        <ele>116.7</ele>
        <time>2024-05-15T10:37:21.000Z</time>
      </trkpt>
      <trkpt lat="48.15024" lon="3.32637">
        <ele>116.7</ele>
        <time>2024-05-15T10:37:20.000Z</time>
      </trkpt>
      <trkpt lat="48.15023" lon="3.32634">
        <ele>116.4</ele>
        <time>2024-05-15T10:37:19.000Z</time>
      </trkpt>
      <trkpt lat="48.15022" lon="3.32632">
        <ele>116.3</ele>
        <time>2024-05-15T10:37:18.000Z</time>
      </trkpt>
      <trkpt lat="48.15021" lon="3.32629">
        <ele>116.1</ele>
        <time>2024-05-15T10:37:17.000Z</time>
      </trkpt>
      <trkpt lat="48.1502" lon="3.32627">
        <ele>115.9</ele>
        <time>2024-05-15T10:37:16.000Z</time>
      </trkpt>
      <trkpt lat="48.1502" lon="3.32625">
        <ele>115.8</ele>
        <time>2024-05-15T10:37:15.000Z</time>
      </trkpt>
      <trkpt lat="48.15019" lon="3.32622">
        <ele>115.6</ele>
        <time>2024-05-15T10:37:14.000Z</time>
      </trkpt>
      <trkpt lat="48.15018" lon="3.32619">
        <ele>115.3</ele>
        <time>2024-05-15T10:37:13.000Z</time>
      </trkpt>
      <trkpt lat="48.15017" lon="3.32617">
        <ele>115.1</ele>
        <time>2024-05-15T10:37:12.000Z</time>
      </trkpt>
      <trkpt lat="48.15017" lon="3.32615">
        <ele>115</ele>
        <time>2024-05-15T10:37:11.000Z</time>
      </trkpt>
      <trkpt lat="48.15016" lon="3.32612">
        <ele>114.8</ele>
        <time>2024-05-15T10:37:10.000Z</time>
      </trkpt>
      <trkpt lat="48.15015" lon="3.3261">
        <ele>114.6</ele>
        <time>2024-05-15T10:37:09.000Z</time>
      </trkpt>
      <trkpt lat="48.15015" lon="3.32608">
        <ele>114.5</ele>
        <time>2024-05-15T10:37:08.000Z</time>
      </trkpt>
      <trkpt lat="48.15012" lon="3.32602">
        <ele>113.8</ele>
        <time>2024-05-15T10:37:05.000Z</time>
      </trkpt>
      <trkpt lat="48.15011" lon="3.32601">
        <ele>113.6</ele>
        <time>2024-05-15T10:37:04.000Z</time>
      </trkpt>
      <trkpt lat="48.1501" lon="3.32599">
        <ele>113.4</ele>
        <time>2024-05-15T10:37:03.000Z</time>
      </trkpt>
      <trkpt lat="48.15009" lon="3.32598">
        <ele>113.2</ele>
        <time>2024-05-15T10:37:02.000Z</time>
      </trkpt>
      <trkpt lat="48.15009" lon="3.32597">
        <ele>113.1</ele>
        <time>2024-05-15T10:37:01.000Z</time>
      </trkpt>
      <trkpt lat="48.15008" lon="3.32595">
        <ele>112.9</ele>
        <time>2024-05-15T10:37:00.000Z</time>
      </trkpt>
      <trkpt lat="48.15008" lon="3.32593">
        <ele>112.7</ele>
        <time>2024-05-15T10:36:59.000Z</time>
      </trkpt>
      <trkpt lat="48.15005" lon="3.32585">
        <ele>111.8</ele>
        <time>2024-05-15T10:36:55.000Z</time>
      </trkpt>
      <trkpt lat="48.15005" lon="3.32583">
        <ele>111.7</ele>
        <time>2024-05-15T10:36:54.000Z</time>
      </trkpt>
      <trkpt lat="48.15002" lon="3.32568">
        <ele>110.2</ele>
        <time>2024-05-15T10:36:49.000Z</time>
      </trkpt>
      <trkpt lat="48.15" lon="3.32556">
        <ele>109</ele>
        <time>2024-05-15T10:36:45.000Z</time>
      </trkpt>
    </trkseg>
  </trk>
</gpx>